Time,TemperatureF,DewpointF,PressureIn,WindDirection,WindDirectionDegrees,WindSpeedMPH,WindSpeedGustMPH,Humidity,HourlyPrecipIn,Conditions,Clouds,dailyrainin,SoftwareType,DateUTC
2013-06-03 00:03:00,67.7,67.7,29.80,ESE,102,1.0,1.0,100,0.29,,,0.02,Wunderground v.1.15,2013-06-03 04:03:00,
2013-06-03 00:07:00,67.7,68.0,29.80,ESE,102,0.0,-999.0,100,-99.99,,,0.03,weatherlink.com 1.10,2013-06-03 04:07:00,
2013-06-03 00:08:00,67.7,67.7,29.80,ESE,102,0.0,1.0,100,0.19,,,0.04,Wunderground v.1.15,2013-06-03 04:08:00,
2013-06-03 00:13:00,67.7,67.7,29.80,ESE,102,0.0,0.0,100,0.10,,,0.04,Wunderground v.1.15,2013-06-03 04:13:00,
2013-06-03 00:23:00,67.7,67.7,29.81,ESE,102,0.0,0.0,100,0.04,,,0.04,Wunderground v.1.15,2013-06-03 04:23:00,
2013-06-03 00:28:00,67.6,67.6,29.81,ESE,102,0.0,0.0,100,0.00,,,0.05,Wunderground v.1.15,2013-06-03 04:28:00,
2013-06-03 00:33:00,67.6,67.6,29.82,ESE,102,0.0,0.0,100,0.00,,,0.05,Wunderground v.1.15,2013-06-03 04:33:00,
2013-06-03 00:38:00,67.5,67.5,29.84,North,355,1.0,6.0,100,5.43,,,0.13,Wunderground v.1.15,2013-06-03 04:38:00,
2013-06-03 00:48:00,66.6,66.6,29.83,NW,304,2.0,2.0,100,1.21,,,0.43,Wunderground v.1.15,2013-06-03 04:48:00,
2013-06-03 00:53:00,66.0,66.0,29.82,NW,326,0.0,-999.0,100,-99.99,,,0.50,weatherlink.com 1.10,2013-06-03 04:53:00,
2013-06-03 01:03:00,65.7,65.7,29.81,NE,40,0.0,0.0,100,0.26,,,0.54,Wunderground v.1.15,2013-06-03 05:03:00,
2013-06-03 01:08:00,65.7,65.7,29.80,NE,40,0.0,0.0,100,0.20,,,0.56,Wunderground v.1.15,2013-06-03 05:08:00,
2013-06-03 01:18:00,65.7,65.7,29.80,North,360,0.0,0.0,100,0.20,,,0.59,Wunderground v.1.15,2013-06-03 05:18:00,
2013-06-03 01:23:00,65.7,66.0,29.80,North,360,0.0,-999.0,100,-99.99,,,0.60,weatherlink.com 1.10,2013-06-03 05:23:00,
2013-06-03 01:33:00,65.6,65.6,29.80,NW,321,0.0,1.0,100,0.31,,,0.62,Wunderground v.1.15,2013-06-03 05:33:00,
2013-06-03 01:38:00,65.5,65.5,29.79,NNW,333,0.0,1.0,100,0.26,,,0.64,Wunderground v.1.15,2013-06-03 05:38:00,
2013-06-03 01:48:00,65.3,65.3,29.79,NNW,333,0.0,0.0,100,0.16,,,0.67,Wunderground v.1.15,2013-06-03 05:48:00,
2013-06-03 01:54:00,65.2,65.0,29.79,NNW,333,0.0,-999.0,100,-99.99,,,0.67,weatherlink.com 1.10,2013-06-03 05:54:00,
2013-06-03 02:03:00,65.2,65.2,29.79,NNW,333,0.0,0.0,100,0.04,,,0.68,Wunderground v.1.15,2013-06-03 06:03:00,
2013-06-03 02:08:00,65.2,65.2,29.79,NNW,333,0.0,0.0,100,0.04,,,0.68,Wunderground v.1.15,2013-06-03 06:08:00,
2013-06-03 02:18:00,65.2,65.2,29.80,NNW,333,0.0,0.0,100,0.04,,,0.68,Wunderground v.1.15,2013-06-03 06:18:00,
2013-06-03 02:24:00,65.2,65.0,29.79,NNW,333,0.0,-999.0,100,-99.99,,,0.68,weatherlink.com 1.10,2013-06-03 06:24:00,
2013-06-03 02:33:00,65.3,65.3,29.80,NNW,333,0.0,0.0,100,0.00,,,0.68,Wunderground v.1.15,2013-06-03 06:33:00,
2013-06-03 02:38:00,65.4,65.4,29.80,NNW,333,0.0,0.0,100,0.00,,,0.68,Wunderground v.1.15,2013-06-03 06:38:00,
2013-06-03 02:48:00,65.7,65.7,29.80,NNW,333,0.0,0.0,100,0.00,,,0.68,Wunderground v.1.15,2013-06-03 06:48:00,
2013-06-03 02:53:00,65.8,65.8,29.79,NNW,333,0.0,0.0,100,0.00,,,0.68,Wunderground v.1.15,2013-06-03 06:53:00,
2013-06-03 02:58:00,65.9,65.9,29.79,NNW,338,0.0,0.0,100,0.00,,,0.68,Wunderground v.1.15,2013-06-03 06:58:00,
2013-06-03 03:08:00,66.1,66.1,29.80,NNW,338,0.0,0.0,100,0.00,,,0.69,Wunderground v.1.15,2013-06-03 07:08:00,
2013-06-03 03:18:00,66.3,66.3,29.79,NNW,338,0.0,0.0,100,0.16,,,0.71,Wunderground v.1.15,2013-06-03 07:18:00,
2013-06-03 03:26:00,66.4,66.0,29.79,NNW,338,0.0,-999.0,100,-99.99,,,0.72,weatherlink.com 1.10,2013-06-03 07:26:00,
2013-06-03 03:33:00,66.5,66.5,29.79,NNW,338,0.0,0.0,100,0.09,,,0.73,Wunderground v.1.15,2013-06-03 07:33:00,
2013-06-03 03:38:00,66.5,66.5,29.79,NNW,338,0.0,0.0,100,0.06,,,0.73,Wunderground v.1.15,2013-06-03 07:38:00,
2013-06-03 03:43:00,66.6,66.6,29.79,NNW,338,0.0,0.0,100,0.04,,,0.73,Wunderground v.1.15,2013-06-03 07:43:00,
2013-06-03 03:48:00,66.6,66.6,29.79,NNW,338,0.0,0.0,100,0.00,,,0.73,Wunderground v.1.15,2013-06-03 07:48:00,
2013-06-03 03:53:00,66.7,66.7,29.79,NNE,23,0.0,-999.0,100,0.06,,,1.48,Wunderground v.1.15,2013-06-03 07:53:00,
2013-06-03 03:56:00,66.7,66.7,29.79,NNE,23,0.0,-999.0,100,0.06,,,1.48,Wunderground v.1.15,2013-06-03 07:56:00,
2013-06-03 03:57:00,66.7,67.0,29.79,NNE,21,0.0,-999.0,100,-99.99,,,0.74,weatherlink.com 1.10,2013-06-03 07:57:00,
2013-06-03 03:58:00,66.7,66.7,29.80,NNE,23,0.0,-999.0,100,0.06,,,1.48,Wunderground v.1.15,2013-06-03 07:58:00,
2013-06-03 04:01:00,66.7,66.7,29.80,NNE,23,0.0,-999.0,100,0.06,,,1.48,Wunderground v.1.15,2013-06-03 08:01:00,
2013-06-03 04:03:00,66.7,66.7,29.80,NNE,21,0.0,0.0,100,0.00,,,0.74,Wunderground v.1.15,2013-06-03 08:03:00,
2013-06-03 04:06:00,66.7,66.7,29.79,NNE,23,0.0,-999.0,100,0.05,,,1.48,Wunderground v.1.15,2013-06-03 08:06:00,
2013-06-03 04:08:00,66.7,66.7,29.80,NNE,21,0.0,0.0,100,0.00,,,0.74,Wunderground v.1.15,2013-06-03 08:08:00,
2013-06-03 04:11:00,66.7,66.7,29.80,NNE,23,0.0,-999.0,100,0.05,,,1.48,Wunderground v.1.15,2013-06-03 08:11:00,
2013-06-03 04:13:00,66.7,66.7,29.80,NNE,23,0.0,-999.0,100,0.03,,,1.48,Wunderground v.1.15,2013-06-03 08:13:00,
2013-06-03 04:16:00,66.7,66.7,29.80,NNE,23,0.0,-999.0,100,0.03,,,1.48,Wunderground v.1.15,2013-06-03 08:16:00,
2013-06-03 04:18:00,66.7,66.7,29.80,NNE,22,0.0,0.0,100,0.00,,,0.74,Wunderground v.1.15,2013-06-03 08:18:00,
2013-06-03 04:21:00,66.7,66.7,29.80,NNE,23,0.0,-999.0,100,0.03,,,1.48,Wunderground v.1.15,2013-06-03 08:21:00,
2013-06-03 04:23:00,66.7,66.7,29.80,NNE,23,0.0,-999.0,100,0.03,,,1.48,Wunderground v.1.15,2013-06-03 08:23:00,
2013-06-03 04:26:00,66.7,67.0,29.80,NNE,22,0.0,-999.0,100,-99.99,,,0.75,weatherlink.com 1.10,2013-06-03 08:26:00,
2013-06-03 04:28:00,66.7,66.7,29.80,N/A,-737280,0.0,-999.0,100,0.02,,,1.48,Wunderground v.1.15,2013-06-03 08:28:00,
2013-06-03 04:31:00,66.7,66.7,29.80,N/A,-737280,0.0,-999.0,100,0.02,,,1.48,Wunderground v.1.15,2013-06-03 08:31:00,
2013-06-03 04:33:00,66.6,66.6,29.80,NNE,23,0.0,-999.0,100,0.02,,,1.48,Wunderground v.1.15,2013-06-03 08:33:00,
2013-06-03 04:36:00,66.6,66.6,29.80,NNE,23,0.0,-999.0,100,0.02,,,1.48,Wunderground v.1.15,2013-06-03 08:36:00,
2013-06-03 04:38:00,66.6,66.6,29.79,NNE,23,0.0,-999.0,100,0.02,,,1.48,Wunderground v.1.15,2013-06-03 08:38:00,
2013-06-03 04:41:00,66.6,67.0,29.80,NNE,22,0.0,-999.0,100,-99.99,,,0.75,weatherlink.com 1.10,2013-06-03 08:41:00,
2013-06-03 04:43:00,66.6,66.6,29.80,NNE,23,0.0,-999.0,100,0.02,,,1.48,Wunderground v.1.15,2013-06-03 08:43:00,
2013-06-03 04:46:00,66.6,66.6,29.80,NNE,23,0.0,-999.0,100,0.02,,,1.48,Wunderground v.1.15,2013-06-03 08:46:00,
2013-06-03 04:48:00,66.6,66.6,29.80,NNE,23,0.0,-999.0,100,0.02,,,1.48,Wunderground v.1.15,2013-06-03 08:48:00,
2013-06-03 04:51:00,66.6,66.6,29.80,NNE,23,0.0,-999.0,100,0.02,,,1.48,Wunderground v.1.15,2013-06-03 08:51:00,
2013-06-03 04:53:00,66.5,66.5,29.80,NNE,23,0.0,-999.0,100,0.01,,,1.48,Wunderground v.1.15,2013-06-03 08:53:00,
2013-06-03 04:56:00,66.5,67.0,29.80,NNE,22,0.0,-999.0,100,-99.99,,,0.75,weatherlink.com 1.10,2013-06-03 08:56:00,
2013-06-03 04:58:00,66.5,66.5,29.80,NNE,23,0.0,-999.0,100,0.02,,,1.48,Wunderground v.1.15,2013-06-03 08:58:00,
2013-06-03 05:01:00,66.5,66.5,29.80,NNE,23,0.0,-999.0,100,0.02,,,1.48,Wunderground v.1.15,2013-06-03 09:01:00,
2013-06-03 05:03:00,66.5,66.5,29.80,N/A,-737280,0.0,-999.0,100,0.02,,,1.48,Wunderground v.1.15,2013-06-03 09:03:00,
2013-06-03 05:06:00,66.5,66.5,29.80,N/A,-737280,0.0,-999.0,100,0.02,,,1.48,Wunderground v.1.15,2013-06-03 09:06:00,
2013-06-03 05:08:00,66.5,66.5,29.80,N/A,-737280,0.0,-999.0,100,0.02,,,1.48,Wunderground v.1.15,2013-06-03 09:08:00,
2013-06-03 05:11:00,66.5,67.0,29.80,NNE,22,0.0,-999.0,100,-99.99,,,0.76,weatherlink.com 1.10,2013-06-03 09:11:00,
2013-06-03 05:13:00,66.5,66.5,29.80,N/A,-737280,0.0,-999.0,100,0.02,,,1.48,Wunderground v.1.15,2013-06-03 09:13:00,
2013-06-03 05:16:00,66.5,66.5,29.80,N/A,-737280,0.0,-999.0,100,0.02,,,1.48,Wunderground v.1.15,2013-06-03 09:16:00,
2013-06-03 05:18:00,66.5,66.5,29.80,N/A,-737280,0.0,-999.0,100,0.02,,,1.48,Wunderground v.1.15,2013-06-03 09:18:00,
2013-06-03 05:21:00,66.5,66.5,29.80,N/A,-737280,0.0,-999.0,100,0.02,,,1.48,Wunderground v.1.15,2013-06-03 09:21:00,
2013-06-03 05:23:00,66.4,66.4,29.80,NNE,23,0.0,-999.0,100,0.01,,,1.48,Wunderground v.1.15,2013-06-03 09:23:00,
2013-06-03 05:26:00,66.4,66.4,29.80,NNE,23,0.0,-999.0,100,0.01,,,1.48,Wunderground v.1.15,2013-06-03 09:26:00,
2013-06-03 05:28:00,66.5,66.5,29.80,NNE,23,0.0,-999.0,100,0.02,,,1.48,Wunderground v.1.15,2013-06-03 09:28:00,
2013-06-03 05:31:00,66.5,66.5,29.80,NNE,23,0.0,-999.0,100,0.02,,,1.48,Wunderground v.1.15,2013-06-03 09:31:00,
2013-06-03 05:33:00,66.4,66.4,29.79,N/A,-737280,0.0,-999.0,100,0.02,,,1.48,Wunderground v.1.15,2013-06-03 09:33:00,
2013-06-03 05:36:00,66.4,66.4,29.79,N/A,-737280,0.0,-999.0,100,0.02,,,1.48,Wunderground v.1.15,2013-06-03 09:36:00,
2013-06-03 05:38:00,66.4,66.4,29.79,N/A,-737280,0.0,-999.0,100,0.02,,,1.48,Wunderground v.1.15,2013-06-03 09:38:00,
2013-06-03 05:41:00,66.4,66.0,29.79,NNE,21,0.0,-999.0,100,-99.99,,,0.77,weatherlink.com 1.10,2013-06-03 09:41:00,
2013-06-03 05:43:00,66.4,66.4,29.79,N/A,-737280,0.0,-999.0,100,0.02,,,1.48,Wunderground v.1.15,2013-06-03 09:43:00,
2013-06-03 05:46:00,66.4,66.4,29.79,N/A,-737280,0.0,-999.0,100,0.02,,,1.48,Wunderground v.1.15,2013-06-03 09:46:00,
2013-06-03 05:48:00,66.3,66.3,29.80,NNE,23,0.0,-999.0,100,0.02,,,1.48,Wunderground v.1.15,2013-06-03 09:48:00,
2013-06-03 05:51:00,66.3,66.3,29.80,NNE,23,0.0,-999.0,100,0.02,,,1.48,Wunderground v.1.15,2013-06-03 09:51:00,
2013-06-03 05:53:00,66.3,66.3,29.80,N/A,-737280,0.0,-999.0,100,0.02,,,1.48,Wunderground v.1.15,2013-06-03 09:53:00,
2013-06-03 05:56:00,66.3,66.0,29.80,NNE,21,0.0,-999.0,100,-99.99,,,0.77,weatherlink.com 1.10,2013-06-03 09:56:00,
2013-06-03 05:58:00,66.3,66.3,29.80,NNE,23,0.0,-999.0,100,0.01,,,1.48,Wunderground v.1.15,2013-06-03 09:58:00,
2013-06-03 06:01:00,66.3,66.3,29.80,NNE,23,0.0,-999.0,100,0.01,,,1.48,Wunderground v.1.15,2013-06-03 10:01:00,
2013-06-03 06:03:00,66.3,66.3,29.80,NNE,23,0.0,-999.0,100,0.01,,,1.48,Wunderground v.1.15,2013-06-03 10:03:00,
2013-06-03 06:06:00,66.3,66.3,29.80,NNE,23,0.0,-999.0,100,0.01,,,1.48,Wunderground v.1.15,2013-06-03 10:06:00,
2013-06-03 06:08:00,66.2,66.2,29.80,N/A,-737280,0.0,-999.0,100,0.01,,,1.48,Wunderground v.1.15,2013-06-03 10:08:00,
2013-06-03 06:11:00,66.2,66.0,29.80,NNE,21,0.0,-999.0,100,-99.99,,,0.77,weatherlink.com 1.10,2013-06-03 10:11:00,
2013-06-03 06:13:00,66.2,66.2,29.80,N/A,-737280,0.0,-999.0,100,0.01,,,1.48,Wunderground v.1.15,2013-06-03 10:13:00,
2013-06-03 06:16:00,66.2,66.2,29.80,N/A,-737280,0.0,-999.0,100,0.01,,,1.48,Wunderground v.1.15,2013-06-03 10:16:00,
2013-06-03 06:18:00,66.2,66.2,29.80,N/A,-737280,0.0,-999.0,100,0.01,,,1.48,Wunderground v.1.15,2013-06-03 10:18:00,
2013-06-03 06:21:00,66.2,66.2,29.80,N/A,-737280,0.0,-999.0,100,0.01,,,1.48,Wunderground v.1.15,2013-06-03 10:21:00,
2013-06-03 06:23:00,66.3,66.3,29.80,N/A,-737280,0.0,-999.0,100,0.01,,,1.48,Wunderground v.1.15,2013-06-03 10:23:00,
2013-06-03 06:26:00,66.3,66.0,29.80,NNE,22,0.0,-999.0,100,-99.99,,,0.77,weatherlink.com 1.10,2013-06-03 10:26:00,
2013-06-03 06:28:00,66.4,66.4,29.81,N/A,-737280,0.0,-999.0,100,0.00,,,1.48,Wunderground v.1.15,2013-06-03 10:28:00,
2013-06-03 06:31:00,66.4,66.4,29.81,N/A,-737280,0.0,-999.0,100,0.00,,,1.48,Wunderground v.1.15,2013-06-03 10:31:00,
2013-06-03 06:33:00,66.4,66.4,29.81,NNE,23,0.0,-999.0,100,0.00,,,1.48,Wunderground v.1.15,2013-06-03 10:33:00,
2013-06-03 06:36:00,66.4,66.4,29.81,NNE,23,0.0,-999.0,100,0.00,,,1.48,Wunderground v.1.15,2013-06-03 10:36:00,
2013-06-03 06:38:00,66.5,66.5,29.80,N/A,-737280,0.0,-999.0,100,0.00,,,1.48,Wunderground v.1.15,2013-06-03 10:38:00,
2013-06-03 06:41:00,66.5,67.0,29.80,NNE,22,0.0,-999.0,100,-99.99,,,0.77,weatherlink.com 1.10,2013-06-03 10:41:00,
2013-06-03 06:43:00,66.5,66.5,29.81,N/A,-737280,0.0,-999.0,100,0.00,,,1.48,Wunderground v.1.15,2013-06-03 10:43:00,
2013-06-03 06:46:00,66.5,66.5,29.81,N/A,-737280,0.0,-999.0,100,0.00,,,1.48,Wunderground v.1.15,2013-06-03 10:46:00,
2013-06-03 06:48:00,66.5,66.5,29.81,N/A,-737280,0.0,-999.0,100,0.00,,,1.48,Wunderground v.1.15,2013-06-03 10:48:00,
2013-06-03 06:51:00,66.5,66.5,29.81,N/A,-737280,0.0,-999.0,100,0.00,,,1.48,Wunderground v.1.15,2013-06-03 10:51:00,
2013-06-03 06:53:00,66.6,66.6,29.81,N/A,-737280,0.0,-999.0,100,0.01,,,1.48,Wunderground v.1.15,2013-06-03 10:53:00,
2013-06-03 06:56:00,66.5,67.0,29.81,NNE,22,0.0,-999.0,100,-99.99,,,0.78,weatherlink.com 1.10,2013-06-03 10:56:00,
2013-06-03 06:58:00,66.6,66.6,29.81,NNE,23,0.0,-999.0,100,0.02,,,1.48,Wunderground v.1.15,2013-06-03 10:58:00,
2013-06-03 07:01:00,66.6,66.6,29.81,NNE,23,0.0,-999.0,100,0.02,,,1.48,Wunderground v.1.15,2013-06-03 11:01:00,
2013-06-03 07:03:00,66.6,66.6,29.81,N/A,-737280,0.0,-999.0,100,0.02,,,1.48,Wunderground v.1.15,2013-06-03 11:03:00,
2013-06-03 07:06:00,66.6,66.6,29.81,N/A,-737280,0.0,-999.0,100,0.02,,,1.48,Wunderground v.1.15,2013-06-03 11:06:00,
2013-06-03 07:08:00,66.6,66.6,29.81,N/A,-737280,0.0,-999.0,100,0.03,,,1.48,Wunderground v.1.15,2013-06-03 11:08:00,
2013-06-03 07:11:00,66.6,67.0,29.81,NNE,22,0.0,-999.0,100,-99.99,,,0.80,weatherlink.com 1.10,2013-06-03 11:11:00,
2013-06-03 07:13:00,66.6,66.6,29.81,NNE,23,0.0,-999.0,100,0.03,,,1.48,Wunderground v.1.15,2013-06-03 11:13:00,
2013-06-03 07:16:00,66.6,66.6,29.81,NNE,23,0.0,-999.0,100,0.03,,,1.48,Wunderground v.1.15,2013-06-03 11:16:00,
2013-06-03 07:18:00,66.7,66.7,29.81,N/A,-737280,0.0,-999.0,100,0.03,,,1.48,Wunderground v.1.15,2013-06-03 11:18:00,
2013-06-03 07:21:00,66.7,66.7,29.81,N/A,-737280,0.0,-999.0,100,0.03,,,1.48,Wunderground v.1.15,2013-06-03 11:21:00,
2013-06-03 07:23:00,66.7,66.7,29.81,NNE,23,0.0,-999.0,100,0.04,,,1.48,Wunderground v.1.15,2013-06-03 11:23:00,
2013-06-03 07:26:00,66.7,67.0,29.81,NNE,21,0.0,-999.0,100,-99.99,,,0.81,weatherlink.com 1.10,2013-06-03 11:26:00,
2013-06-03 07:28:00,66.8,66.8,29.80,NNE,23,0.0,-999.0,100,0.04,,,1.48,Wunderground v.1.15,2013-06-03 11:28:00,
2013-06-03 07:31:00,66.8,66.8,29.80,NNE,23,0.0,-999.0,100,0.04,,,1.48,Wunderground v.1.15,2013-06-03 11:31:00,
2013-06-03 07:33:00,66.8,66.8,29.80,NNE,23,0.0,-999.0,100,0.04,,,1.48,Wunderground v.1.15,2013-06-03 11:33:00,
2013-06-03 07:36:00,66.8,66.8,29.80,NNE,23,0.0,-999.0,100,0.04,,,1.48,Wunderground v.1.15,2013-06-03 11:36:00,
2013-06-03 07:38:00,66.9,66.9,29.80,NNE,23,0.0,-999.0,100,0.04,,,1.48,Wunderground v.1.15,2013-06-03 11:38:00,
2013-06-03 07:41:00,66.9,67.0,29.80,NNE,12,0.0,-999.0,100,-99.99,,,0.82,weatherlink.com 1.10,2013-06-03 11:41:00,
2013-06-03 07:43:00,66.9,66.9,29.80,N/A,-737280,0.0,-999.0,100,0.05,,,1.48,Wunderground v.1.15,2013-06-03 11:43:00,
2013-06-03 07:46:00,66.9,66.9,29.80,N/A,-737280,0.0,-999.0,100,0.05,,,1.48,Wunderground v.1.15,2013-06-03 11:46:00,
2013-06-03 07:48:00,67.1,67.1,29.80,North,0,0.0,-999.0,100,0.05,,,1.48,Wunderground v.1.15,2013-06-03 11:48:00,
2013-06-03 07:51:00,67.1,67.1,29.80,North,0,0.0,-999.0,100,0.05,,,1.48,Wunderground v.1.15,2013-06-03 11:51:00,
2013-06-03 07:53:00,67.2,67.2,29.80,North,0,0.0,-999.0,100,0.04,,,1.48,Wunderground v.1.15,2013-06-03 11:53:00,
2013-06-03 07:56:00,67.2,67.0,29.80,North,11,0.0,-999.0,100,-99.99,,,0.82,weatherlink.com 1.10,2013-06-03 11:56:00,
2013-06-03 07:58:00,67.2,67.2,29.80,NNE,23,0.0,-999.0,100,0.03,,,1.48,Wunderground v.1.15,2013-06-03 11:58:00,
2013-06-03 08:00:00,67.2,67.2,29.80,NNE,23,0.0,-999.0,100,0.03,,,1.48,Wunderground v.1.15,2013-06-03 12:00:00,
2013-06-03 08:01:00,67.2,67.2,29.80,NNE,23,0.0,-999.0,100,0.03,,,1.48,Wunderground v.1.15,2013-06-03 12:01:00,
2013-06-03 08:02:00,67.2,67.2,29.80,NNE,23,0.0,-999.0,100,0.03,,,1.48,Wunderground v.1.15,2013-06-03 12:02:00,
2013-06-03 08:03:00,67.1,67.1,29.80,SW,225,0.0,-999.0,100,0.04,,,1.48,Wunderground v.1.15,2013-06-03 12:03:00,
2013-06-03 08:04:00,67.1,67.1,29.80,SW,225,0.0,-999.0,100,0.04,,,1.48,Wunderground v.1.15,2013-06-03 12:04:00,
2013-06-03 08:05:00,67.1,67.1,29.80,SW,225,0.0,-999.0,100,0.04,,,1.48,Wunderground v.1.15,2013-06-03 12:05:00,
2013-06-03 08:06:00,67.1,67.1,29.80,SW,225,0.0,-999.0,100,0.04,,,1.48,Wunderground v.1.15,2013-06-03 12:06:00,
2013-06-03 08:07:00,67.1,67.1,29.80,SW,225,0.0,-999.0,100,0.04,,,1.48,Wunderground v.1.15,2013-06-03 12:07:00,
2013-06-03 08:08:00,67.0,67.0,29.80,SSE,158,0.0,-999.0,100,0.03,,,1.48,Wunderground v.1.15,2013-06-03 12:08:00,
2013-06-03 08:09:00,67.0,67.0,29.80,SSE,158,0.0,-999.0,100,0.03,,,1.48,Wunderground v.1.15,2013-06-03 12:09:00,
2013-06-03 08:10:00,67.0,67.0,29.80,SSE,158,0.0,-999.0,100,0.03,,,1.48,Wunderground v.1.15,2013-06-03 12:10:00,
2013-06-03 08:11:00,67.0,67.0,29.80,SSE,154,0.0,-999.0,100,-99.99,,,0.84,weatherlink.com 1.10,2013-06-03 12:11:00,
2013-06-03 08:12:00,67.0,67.0,29.80,SSE,158,0.0,-999.0,100,0.03,,,1.48,Wunderground v.1.15,2013-06-03 12:12:00,
2013-06-03 08:13:00,67.0,67.0,29.81,SSE,158,0.0,-999.0,100,0.04,,,1.48,Wunderground v.1.15,2013-06-03 12:13:00,
2013-06-03 08:14:00,67.0,67.0,29.81,SSE,158,0.0,-999.0,100,0.04,,,1.48,Wunderground v.1.15,2013-06-03 12:14:00,
2013-06-03 08:15:00,67.0,67.0,29.81,SSE,158,0.0,-999.0,100,0.04,,,1.48,Wunderground v.1.15,2013-06-03 12:15:00,
2013-06-03 08:16:00,67.0,67.0,29.81,SSE,158,0.0,-999.0,100,0.04,,,1.48,Wunderground v.1.15,2013-06-03 12:16:00,
2013-06-03 08:17:00,67.0,67.0,29.81,SSE,158,0.0,-999.0,100,0.04,,,1.48,Wunderground v.1.15,2013-06-03 12:17:00,
2013-06-03 08:18:00,66.8,66.8,29.80,NW,315,0.0,-999.0,100,0.04,,,1.48,Wunderground v.1.15,2013-06-03 12:18:00,
2013-06-03 08:19:00,66.8,66.8,29.80,NW,315,0.0,-999.0,100,0.04,,,1.48,Wunderground v.1.15,2013-06-03 12:19:00,
2013-06-03 08:20:00,66.8,66.8,29.80,NW,315,0.0,-999.0,100,0.04,,,1.48,Wunderground v.1.15,2013-06-03 12:20:00,
2013-06-03 08:21:00,66.8,66.8,29.80,NW,315,0.0,-999.0,100,0.04,,,1.48,Wunderground v.1.15,2013-06-03 12:21:00,
2013-06-03 08:22:00,66.8,66.8,29.80,NW,315,0.0,-999.0,100,0.04,,,1.48,Wunderground v.1.15,2013-06-03 12:22:00,
2013-06-03 08:23:00,66.7,66.7,29.81,SSW,203,0.0,-999.0,100,0.03,,,1.48,Wunderground v.1.15,2013-06-03 12:23:00,
2013-06-03 08:24:00,66.7,66.7,29.81,SSW,203,0.0,-999.0,100,0.03,,,1.48,Wunderground v.1.15,2013-06-03 12:24:00,
2013-06-03 08:25:00,66.7,66.7,29.81,SSW,203,0.0,-999.0,100,0.03,,,1.48,Wunderground v.1.15,2013-06-03 12:25:00,
2013-06-03 08:26:00,66.6,67.0,29.81,NNE,22,0.0,-999.0,100,-99.99,,,0.84,weatherlink.com 1.10,2013-06-03 12:26:00,
2013-06-03 08:27:00,66.7,66.7,29.81,SSW,203,0.0,-999.0,100,0.03,,,1.48,Wunderground v.1.15,2013-06-03 12:27:00,
2013-06-03 08:28:00,66.6,66.6,29.81,NNE,23,0.0,-999.0,100,0.05,,,1.48,Wunderground v.1.15,2013-06-03 12:28:00,
2013-06-03 08:29:00,66.6,66.6,29.81,NNE,23,0.0,-999.0,100,0.05,,,1.48,Wunderground v.1.15,2013-06-03 12:29:00,
2013-06-03 08:30:00,66.6,66.6,29.81,NNE,23,0.0,-999.0,100,0.05,,,1.48,Wunderground v.1.15,2013-06-03 12:30:00,
2013-06-03 08:31:00,66.6,66.6,29.81,NNE,23,0.0,-999.0,100,0.05,,,1.48,Wunderground v.1.15,2013-06-03 12:31:00,
2013-06-03 08:32:00,66.6,66.6,29.81,NNE,23,0.0,-999.0,100,0.05,,,1.48,Wunderground v.1.15,2013-06-03 12:32:00,
2013-06-03 08:33:00,66.1,66.1,29.82,SSE,158,0.0,-999.0,100,0.18,,,1.48,Wunderground v.1.15,2013-06-03 12:33:00,
2013-06-03 08:34:00,66.1,66.1,29.82,SSE,158,0.0,-999.0,100,0.18,,,1.48,Wunderground v.1.15,2013-06-03 12:34:00,
2013-06-03 08:35:00,66.1,66.1,29.82,SSE,158,0.0,-999.0,100,0.18,,,1.48,Wunderground v.1.15,2013-06-03 12:35:00,
2013-06-03 08:36:00,66.1,66.1,29.82,SSE,158,0.0,-999.0,100,0.18,,,1.48,Wunderground v.1.15,2013-06-03 12:36:00,
2013-06-03 08:37:00,66.1,66.1,29.82,SSE,158,0.0,-999.0,100,0.18,,,1.48,Wunderground v.1.15,2013-06-03 12:37:00,
2013-06-03 08:38:00,65.5,65.5,29.82,SSE,158,0.0,-999.0,100,0.27,,,1.48,Wunderground v.1.15,2013-06-03 12:38:00,
2013-06-03 08:39:00,65.5,65.5,29.82,SSE,158,0.0,-999.0,100,0.27,,,1.48,Wunderground v.1.15,2013-06-03 12:39:00,
2013-06-03 08:40:00,65.5,65.5,29.82,SSE,158,0.0,-999.0,100,0.27,,,1.48,Wunderground v.1.15,2013-06-03 12:40:00,
2013-06-03 08:41:00,65.2,65.0,29.82,WSW,257,0.0,-999.0,100,-99.99,,,1.13,weatherlink.com 1.10,2013-06-03 12:41:00,
2013-06-03 08:42:00,65.5,65.5,29.82,SSE,158,0.0,-999.0,100,0.27,,,1.48,Wunderground v.1.15,2013-06-03 12:42:00,
2013-06-03 08:43:00,64.9,64.9,29.82,WSW,248,0.0,-999.0,100,0.35,,,1.48,Wunderground v.1.15,2013-06-03 12:43:00,
2013-06-03 08:44:00,64.9,64.9,29.82,WSW,248,0.0,-999.0,100,0.35,,,1.48,Wunderground v.1.15,2013-06-03 12:44:00,
2013-06-03 08:45:00,64.9,64.9,29.82,WSW,248,0.0,-999.0,100,0.35,,,1.48,Wunderground v.1.15,2013-06-03 12:45:00,
2013-06-03 08:46:00,64.9,64.9,29.82,WSW,248,0.0,-999.0,100,0.35,,,1.48,Wunderground v.1.15,2013-06-03 12:46:00,
2013-06-03 08:47:00,64.9,64.9,29.82,WSW,248,0.0,-999.0,100,0.35,,,1.48,Wunderground v.1.15,2013-06-03 12:47:00,
2013-06-03 08:48:00,64.7,64.7,29.82,NNW,338,0.0,-999.0,100,0.40,,,1.48,Wunderground v.1.15,2013-06-03 12:48:00,
2013-06-03 08:49:00,64.7,64.7,29.82,NNW,338,0.0,-999.0,100,0.40,,,1.48,Wunderground v.1.15,2013-06-03 12:49:00,
2013-06-03 08:50:00,64.7,64.7,29.82,NNW,338,0.0,-999.0,100,0.40,,,1.48,Wunderground v.1.15,2013-06-03 12:50:00,
2013-06-03 08:51:00,64.7,64.7,29.82,NNW,338,0.0,-999.0,100,0.40,,,1.48,Wunderground v.1.15,2013-06-03 12:51:00,
2013-06-03 08:52:00,64.7,64.7,29.82,NNW,338,0.0,-999.0,100,0.40,,,1.48,Wunderground v.1.15,2013-06-03 12:52:00,
2013-06-03 08:53:00,64.5,64.5,29.82,NW,315,0.0,-999.0,100,0.53,,,1.48,Wunderground v.1.15,2013-06-03 12:53:00,
2013-06-03 08:54:00,64.5,64.5,29.82,NW,315,0.0,-999.0,100,0.53,,,1.48,Wunderground v.1.15,2013-06-03 12:54:00,
2013-06-03 08:55:00,64.5,64.5,29.82,NW,315,0.0,-999.0,100,0.53,,,1.48,Wunderground v.1.15,2013-06-03 12:55:00,
2013-06-03 08:56:00,64.5,65.0,29.82,NW,322,0.0,-999.0,100,-99.99,,,1.36,weatherlink.com 1.10,2013-06-03 12:56:00,
2013-06-03 08:57:00,64.5,64.5,29.82,NW,315,0.0,-999.0,100,0.53,,,1.48,Wunderground v.1.15,2013-06-03 12:57:00,
2013-06-03 08:58:00,64.4,64.4,29.82,NW,315,0.0,-999.0,100,0.56,,,1.48,Wunderground v.1.15,2013-06-03 12:58:00,
2013-06-03 08:59:00,64.4,64.4,29.82,NW,315,0.0,-999.0,100,0.56,,,1.48,Wunderground v.1.15,2013-06-03 12:59:00,
2013-06-03 09:00:00,64.4,64.4,29.82,NW,315,0.0,-999.0,100,0.56,,,1.48,Wunderground v.1.15,2013-06-03 13:00:00,
2013-06-03 09:01:00,64.4,64.4,29.82,NW,315,0.0,-999.0,100,0.56,,,1.48,Wunderground v.1.15,2013-06-03 13:01:00,
2013-06-03 09:02:00,64.4,64.4,29.82,NW,315,0.0,-999.0,100,0.56,,,1.48,Wunderground v.1.15,2013-06-03 13:02:00,
2013-06-03 09:03:00,64.3,64.3,29.82,NW,315,0.0,-999.0,100,0.58,,,1.48,Wunderground v.1.15,2013-06-03 13:03:00,
2013-06-03 09:04:00,64.3,64.3,29.82,NW,315,0.0,-999.0,100,0.58,,,1.48,Wunderground v.1.15,2013-06-03 13:04:00,
2013-06-03 09:05:00,64.3,64.3,29.82,NW,315,0.0,-999.0,100,0.58,,,1.48,Wunderground v.1.15,2013-06-03 13:05:00,
2013-06-03 09:06:00,64.3,64.3,29.82,NW,315,0.0,-999.0,100,0.58,,,1.48,Wunderground v.1.15,2013-06-03 13:06:00,
2013-06-03 09:07:00,64.3,64.3,29.82,NW,315,0.0,-999.0,100,0.58,,,1.48,Wunderground v.1.15,2013-06-03 13:07:00,
2013-06-03 09:08:00,64.1,64.1,29.82,NW,315,0.0,-999.0,100,0.58,,,1.48,Wunderground v.1.15,2013-06-03 13:08:00,
2013-06-03 09:09:00,64.1,64.1,29.82,NW,315,0.0,-999.0,100,0.58,,,1.48,Wunderground v.1.15,2013-06-03 13:09:00,
2013-06-03 09:10:00,64.1,64.1,29.82,NW,315,0.0,-999.0,100,0.58,,,1.48,Wunderground v.1.15,2013-06-03 13:10:00,
2013-06-03 09:11:00,64.1,64.1,29.82,NW,315,0.0,-999.0,100,0.58,,,1.48,Wunderground v.1.15,2013-06-03 13:11:00,
2013-06-03 09:12:00,64.0,64.0,29.82,NW,322,0.0,-999.0,100,-99.99,,,1.41,weatherlink.com 1.10,2013-06-03 13:12:00,
2013-06-03 09:13:00,63.9,63.9,29.82,NW,315,0.0,-999.0,100,0.57,,,1.48,Wunderground v.1.15,2013-06-03 13:13:00,
2013-06-03 09:14:00,63.9,63.9,29.82,NW,315,0.0,-999.0,100,0.57,,,1.48,Wunderground v.1.15,2013-06-03 13:14:00,
2013-06-03 09:15:00,63.9,63.9,29.82,NW,315,0.0,-999.0,100,0.57,,,1.48,Wunderground v.1.15,2013-06-03 13:15:00,
2013-06-03 09:16:00,63.9,63.9,29.82,NW,315,0.0,-999.0,100,0.57,,,1.48,Wunderground v.1.15,2013-06-03 13:16:00,
2013-06-03 09:17:00,63.9,63.9,29.82,NW,315,0.0,-999.0,100,0.57,,,1.48,Wunderground v.1.15,2013-06-03 13:17:00,
2013-06-03 09:18:00,63.7,63.7,29.82,NW,315,0.0,-999.0,100,0.57,,,1.48,Wunderground v.1.15,2013-06-03 13:18:00,
2013-06-03 09:19:00,63.7,63.7,29.82,NW,315,0.0,-999.0,100,0.57,,,1.48,Wunderground v.1.15,2013-06-03 13:19:00,
2013-06-03 09:20:00,63.7,63.7,29.82,NW,315,0.0,-999.0,100,0.57,,,1.48,Wunderground v.1.15,2013-06-03 13:20:00,
2013-06-03 09:21:00,63.7,63.7,29.82,NW,315,0.0,-999.0,100,0.57,,,1.48,Wunderground v.1.15,2013-06-03 13:21:00,
2013-06-03 09:22:00,63.7,63.7,29.82,NW,315,0.0,-999.0,100,0.57,,,1.48,Wunderground v.1.15,2013-06-03 13:22:00,
2013-06-03 09:23:00,63.6,63.6,29.82,NW,315,0.0,-999.0,100,0.58,,,1.48,Wunderground v.1.15,2013-06-03 13:23:00,
2013-06-03 09:24:00,63.6,63.6,29.82,NW,315,0.0,-999.0,100,0.58,,,1.48,Wunderground v.1.15,2013-06-03 13:24:00,
2013-06-03 09:25:00,63.6,63.6,29.82,NW,315,0.0,-999.0,100,0.58,,,1.48,Wunderground v.1.15,2013-06-03 13:25:00,
2013-06-03 09:26:00,63.6,63.6,29.82,NW,315,0.0,-999.0,100,0.58,,,1.48,Wunderground v.1.15,2013-06-03 13:26:00,
2013-06-03 09:27:00,63.7,64.0,29.82,NNW,345,0.0,-999.0,100,-99.99,,,1.42,weatherlink.com 1.10,2013-06-03 13:27:00,
2013-06-03 09:28:00,63.7,63.7,29.82,NNW,338,0.0,-999.0,100,0.56,,,1.48,Wunderground v.1.15,2013-06-03 13:28:00,
2013-06-03 09:29:00,63.7,63.7,29.82,NNW,338,0.0,-999.0,100,0.56,,,1.48,Wunderground v.1.15,2013-06-03 13:29:00,
2013-06-03 09:30:00,63.7,63.7,29.82,NNW,338,0.0,-999.0,100,0.56,,,1.48,Wunderground v.1.15,2013-06-03 13:30:00,
2013-06-03 09:31:00,63.7,63.7,29.82,NNW,338,0.0,-999.0,100,0.56,,,1.48,Wunderground v.1.15,2013-06-03 13:31:00,
2013-06-03 09:33:00,63.8,63.8,29.82,N/A,-737280,0.0,-999.0,100,0.43,,,1.48,Wunderground v.1.15,2013-06-03 13:33:00,
2013-06-03 09:35:00,63.8,63.8,29.82,N/A,-737280,0.0,-999.0,100,0.43,,,1.48,Wunderground v.1.15,2013-06-03 13:35:00,
2013-06-03 09:36:00,63.8,63.8,29.82,N/A,-737280,0.0,-999.0,100,0.43,,,1.48,Wunderground v.1.15,2013-06-03 13:36:00,
2013-06-03 09:38:00,64.0,64.0,29.83,NNW,338,0.0,-999.0,100,0.34,,,1.48,Wunderground v.1.15,2013-06-03 13:38:00,
2013-06-03 09:40:00,64.0,64.0,29.83,NNW,338,0.0,-999.0,100,0.34,,,1.48,Wunderground v.1.15,2013-06-03 13:40:00,
2013-06-03 09:41:00,64.0,64.0,29.83,NNW,338,0.0,-999.0,100,0.34,,,1.48,Wunderground v.1.15,2013-06-03 13:41:00,
2013-06-03 09:42:00,64.1,64.0,29.82,NNW,345,0.0,-999.0,100,-99.99,,,1.42,weatherlink.com 1.10,2013-06-03 13:42:00,
2013-06-03 09:43:00,64.2,64.2,29.83,NNW,338,0.0,-999.0,100,0.25,,,1.48,Wunderground v.1.15,2013-06-03 13:43:00,
2013-06-03 09:45:00,64.2,64.2,29.83,NNW,338,0.0,-999.0,100,0.25,,,1.48,Wunderground v.1.15,2013-06-03 13:45:00,
2013-06-03 09:46:00,64.2,64.2,29.83,NNW,338,0.0,-999.0,100,0.25,,,1.48,Wunderground v.1.15,2013-06-03 13:46:00,
2013-06-03 09:48:00,64.0,64.0,29.83,NNW,338,0.0,-999.0,100,0.20,,,1.48,Wunderground v.1.15,2013-06-03 13:48:00,
2013-06-03 09:50:00,64.0,64.0,29.83,NNW,338,0.0,-999.0,100,0.20,,,1.48,Wunderground v.1.15,2013-06-03 13:50:00,
2013-06-03 09:51:00,64.0,64.0,29.83,NNW,338,0.0,-999.0,100,0.20,,,1.48,Wunderground v.1.15,2013-06-03 13:51:00,
2013-06-03 09:53:00,63.9,63.9,29.84,N/A,-737280,0.0,-999.0,100,0.07,,,1.48,Wunderground v.1.15,2013-06-03 13:53:00,
2013-06-03 09:55:00,63.9,63.9,29.84,N/A,-737280,0.0,-999.0,100,0.07,,,1.48,Wunderground v.1.15,2013-06-03 13:55:00,
2013-06-03 09:56:00,63.8,64.0,29.84,NNW,345,0.0,-999.0,100,-99.99,,,1.43,weatherlink.com 1.10,2013-06-03 13:56:00,
2013-06-03 09:58:00,63.9,63.9,29.84,N/A,-737280,0.0,-999.0,100,0.05,,,1.48,Wunderground v.1.15,2013-06-03 13:58:00,
2013-06-03 10:00:00,63.9,63.9,29.84,N/A,-737280,0.0,-999.0,100,0.05,,,1.48,Wunderground v.1.15,2013-06-03 14:00:00,
2013-06-03 10:01:00,63.9,63.9,29.84,N/A,-737280,0.0,-999.0,100,0.05,,,1.48,Wunderground v.1.15,2013-06-03 14:01:00,
2013-06-03 10:03:00,63.7,63.7,29.84,N/A,-737280,0.0,-999.0,100,0.02,,,1.48,Wunderground v.1.15,2013-06-03 14:03:00,
2013-06-03 10:05:00,63.7,63.7,29.84,N/A,-737280,0.0,-999.0,100,0.02,,,1.48,Wunderground v.1.15,2013-06-03 14:05:00,
2013-06-03 10:06:00,63.7,63.7,29.84,N/A,-737280,0.0,-999.0,100,0.02,,,1.48,Wunderground v.1.15,2013-06-03 14:06:00,
2013-06-03 10:08:00,63.6,63.6,29.84,N/A,-737280,0.0,-999.0,100,0.02,,,1.48,Wunderground v.1.15,2013-06-03 14:08:00,
2013-06-03 10:10:00,63.6,63.6,29.84,N/A,-737280,0.0,-999.0,100,0.02,,,1.48,Wunderground v.1.15,2013-06-03 14:10:00,
2013-06-03 10:11:00,63.6,63.6,29.84,N/A,-737280,0.0,-999.0,100,0.02,,,1.48,Wunderground v.1.15,2013-06-03 14:11:00,
2013-06-03 10:12:00,63.7,64.0,29.84,NNW,345,0.0,-999.0,100,-99.99,,,1.43,weatherlink.com 1.10,2013-06-03 14:12:00,
2013-06-03 10:13:00,63.6,63.6,29.84,N/A,-737280,0.0,-999.0,100,0.02,,,1.48,Wunderground v.1.15,2013-06-03 14:13:00,
2013-06-03 10:15:00,63.6,63.6,29.84,N/A,-737280,0.0,-999.0,100,0.02,,,1.48,Wunderground v.1.15,2013-06-03 14:15:00,
2013-06-03 10:16:00,63.6,63.6,29.84,N/A,-737280,0.0,-999.0,100,0.02,,,1.48,Wunderground v.1.15,2013-06-03 14:16:00,
2013-06-03 10:18:00,63.6,63.6,29.84,N/A,-737280,0.0,-999.0,100,0.02,,,1.48,Wunderground v.1.15,2013-06-03 14:18:00,
2013-06-03 10:20:00,63.6,63.6,29.84,N/A,-737280,0.0,-999.0,100,0.02,,,1.48,Wunderground v.1.15,2013-06-03 14:20:00,
2013-06-03 10:21:00,63.6,63.6,29.84,N/A,-737280,0.0,-999.0,100,0.02,,,1.48,Wunderground v.1.15,2013-06-03 14:21:00,
2013-06-03 10:23:00,63.6,63.6,29.84,N/A,-737280,0.0,-999.0,100,0.02,,,1.48,Wunderground v.1.15,2013-06-03 14:23:00,
2013-06-03 10:25:00,63.6,63.6,29.84,N/A,-737280,0.0,-999.0,100,0.02,,,1.48,Wunderground v.1.15,2013-06-03 14:25:00,
2013-06-03 10:26:00,63.6,63.6,29.84,N/A,-737280,0.0,-999.0,100,0.02,,,1.48,Wunderground v.1.15,2013-06-03 14:26:00,
2013-06-03 10:27:00,63.6,64.0,29.84,NNW,345,0.0,-999.0,100,-99.99,,,1.44,weatherlink.com 1.10,2013-06-03 14:27:00,
2013-06-03 10:28:00,63.6,63.6,29.84,N/A,-737280,0.0,-999.0,100,0.02,,,1.48,Wunderground v.1.15,2013-06-03 14:28:00,
2013-06-03 10:31:00,63.6,63.6,29.84,N/A,-737280,0.0,-999.0,100,0.02,,,1.48,Wunderground v.1.15,2013-06-03 14:31:00,
2013-06-03 10:33:00,63.7,63.7,29.83,N/A,-737280,0.0,-999.0,100,0.02,,,1.48,Wunderground v.1.15,2013-06-03 14:33:00,
2013-06-03 10:36:00,63.7,63.7,29.83,N/A,-737280,0.0,-999.0,100,0.02,,,1.48,Wunderground v.1.15,2013-06-03 14:36:00,
2013-06-03 10:38:00,64.0,64.0,29.83,NNW,338,0.0,-999.0,100,0.02,,,1.48,Wunderground v.1.15,2013-06-03 14:38:00,
2013-06-03 10:41:00,64.0,64.0,29.83,NNW,338,0.0,-999.0,100,0.02,,,1.48,Wunderground v.1.15,2013-06-03 14:41:00,
2013-06-03 10:42:00,64.1,64.0,29.83,NNW,345,0.0,-999.0,100,-99.99,,,1.44,weatherlink.com 1.10,2013-06-03 14:42:00,
2013-06-03 10:43:00,64.3,64.3,29.83,NNW,338,0.0,-999.0,100,0.02,,,1.48,Wunderground v.1.15,2013-06-03 14:43:00,
2013-06-03 10:46:00,64.3,64.3,29.83,NNW,338,0.0,-999.0,100,0.02,,,1.48,Wunderground v.1.15,2013-06-03 14:46:00,
2013-06-03 10:48:00,64.5,64.5,29.83,N/A,-737280,0.0,-999.0,100,0.02,,,1.48,Wunderground v.1.15,2013-06-03 14:48:00,
2013-06-03 10:51:00,64.5,64.5,29.83,N/A,-737280,0.0,-999.0,100,0.02,,,1.48,Wunderground v.1.15,2013-06-03 14:51:00,
2013-06-03 10:53:00,64.8,64.8,29.83,NNW,338,0.0,-999.0,100,0.02,,,1.48,Wunderground v.1.15,2013-06-03 14:53:00,
2013-06-03 10:56:00,64.8,64.8,29.83,NNW,338,0.0,-999.0,100,0.02,,,1.48,Wunderground v.1.15,2013-06-03 14:56:00,
2013-06-03 10:57:00,64.9,65.0,29.83,NNW,345,0.0,-999.0,100,-99.99,,,1.44,weatherlink.com 1.10,2013-06-03 14:57:00,
2013-06-03 10:58:00,65.0,65.0,29.83,NNW,338,0.0,-999.0,100,0.01,,,1.48,Wunderground v.1.15,2013-06-03 14:58:00,
2013-06-03 11:01:00,65.0,65.0,29.83,NNW,338,0.0,-999.0,100,0.01,,,1.48,Wunderground v.1.15,2013-06-03 15:01:00,
2013-06-03 11:03:00,65.1,65.1,29.83,N/A,-737280,0.0,-999.0,100,0.02,,,1.48,Wunderground v.1.15,2013-06-03 15:03:00,
2013-06-03 11:06:00,65.1,65.1,29.83,N/A,-737280,0.0,-999.0,100,0.02,,,1.48,Wunderground v.1.15,2013-06-03 15:06:00,
2013-06-03 11:08:00,65.3,65.3,29.83,NNW,338,0.0,-999.0,100,0.02,,,1.48,Wunderground v.1.15,2013-06-03 15:08:00,
2013-06-03 11:11:00,65.3,65.3,29.83,NNW,338,0.0,-999.0,100,0.02,,,1.48,Wunderground v.1.15,2013-06-03 15:11:00,
2013-06-03 11:12:00,65.4,65.0,29.83,NNW,345,0.0,-999.0,100,-99.99,,,1.45,weatherlink.com 1.10,2013-06-03 15:12:00,
2013-06-03 11:13:00,65.4,65.4,29.83,NNW,338,0.0,-999.0,100,0.02,,,1.48,Wunderground v.1.15,2013-06-03 15:13:00,
2013-06-03 11:16:00,65.4,65.4,29.83,NNW,338,0.0,-999.0,100,0.02,,,1.48,Wunderground v.1.15,2013-06-03 15:16:00,
2013-06-03 11:18:00,65.4,65.4,29.83,N/A,-737280,0.0,-999.0,100,0.02,,,1.48,Wunderground v.1.15,2013-06-03 15:18:00,
2013-06-03 11:21:00,65.4,65.4,29.83,N/A,-737280,0.0,-999.0,100,0.02,,,1.48,Wunderground v.1.15,2013-06-03 15:21:00,
2013-06-03 11:23:00,65.6,65.6,29.83,NNW,338,0.0,-999.0,100,0.02,,,1.48,Wunderground v.1.15,2013-06-03 15:23:00,
2013-06-03 11:26:00,65.6,65.6,29.83,NNW,338,0.0,-999.0,100,0.02,,,1.48,Wunderground v.1.15,2013-06-03 15:26:00,
2013-06-03 11:27:00,65.8,66.0,29.83,NNW,345,0.0,-999.0,100,-99.99,,,1.46,weatherlink.com 1.10,2013-06-03 15:27:00,
2013-06-03 11:28:00,66.1,66.1,29.83,N/A,-737280,0.0,-999.0,100,0.02,,,1.48,Wunderground v.1.15,2013-06-03 15:28:00,
2013-06-03 11:31:00,66.1,66.1,29.83,N/A,-737280,0.0,-999.0,100,0.02,,,1.48,Wunderground v.1.15,2013-06-03 15:31:00,
2013-06-03 11:33:00,66.2,66.2,29.83,NNW,338,0.0,-999.0,100,0.02,,,1.48,Wunderground v.1.15,2013-06-03 15:33:00,
2013-06-03 11:36:00,66.2,66.2,29.83,NNW,338,0.0,-999.0,100,0.02,,,1.48,Wunderground v.1.15,2013-06-03 15:36:00,
2013-06-03 11:38:00,66.4,66.4,29.83,NNW,338,0.0,-999.0,100,0.02,,,1.48,Wunderground v.1.15,2013-06-03 15:38:00,
2013-06-03 11:41:00,66.4,66.4,29.83,NNW,338,0.0,-999.0,100,0.02,,,1.48,Wunderground v.1.15,2013-06-03 15:41:00,
2013-06-03 11:42:00,66.5,67.0,29.83,NNW,345,0.0,-999.0,100,-99.99,,,1.46,weatherlink.com 1.10,2013-06-03 15:42:00,
2013-06-03 11:43:00,66.8,66.8,29.83,N/A,-737280,0.0,-999.0,100,0.02,,,1.48,Wunderground v.1.15,2013-06-03 15:43:00,
2013-06-03 11:46:00,66.8,66.8,29.83,N/A,-737280,0.0,-999.0,100,0.02,,,1.48,Wunderground v.1.15,2013-06-03 15:46:00,
2013-06-03 11:48:00,67.3,67.3,29.83,NNW,338,0.0,-999.0,100,0.03,,,1.48,Wunderground v.1.15,2013-06-03 15:48:00,
2013-06-03 11:51:00,67.3,67.3,29.83,NNW,338,0.0,-999.0,100,0.03,,,1.48,Wunderground v.1.15,2013-06-03 15:51:00,
2013-06-03 11:53:00,67.9,67.9,29.84,NNW,338,0.0,-999.0,100,0.03,,,1.48,Wunderground v.1.15,2013-06-03 15:53:00,
2013-06-03 11:56:00,67.9,67.9,29.84,NNW,338,0.0,-999.0,100,0.03,,,1.48,Wunderground v.1.15,2013-06-03 15:56:00,
2013-06-03 11:57:00,68.1,68.0,29.83,NNW,345,0.0,-999.0,100,-99.99,,,1.47,weatherlink.com 1.10,2013-06-03 15:57:00,
2013-06-03 11:58:00,68.4,68.4,29.83,NNW,338,0.0,-999.0,100,0.03,,,1.48,Wunderground v.1.15,2013-06-03 15:58:00,
2013-06-03 12:01:00,68.4,68.4,29.83,NNW,338,0.0,-999.0,100,0.03,,,1.48,Wunderground v.1.15,2013-06-03 16:01:00,
2013-06-03 12:03:00,68.9,68.9,29.84,NNW,338,0.0,-999.0,100,0.02,,,1.48,Wunderground v.1.15,2013-06-03 16:03:00,
2013-06-03 12:06:00,68.9,68.9,29.84,NNW,338,0.0,-999.0,100,0.02,,,1.48,Wunderground v.1.15,2013-06-03 16:06:00,
2013-06-03 12:08:00,68.9,68.0,29.84,NW,315,0.0,-999.0,97,0.02,,,1.48,Wunderground v.1.15,2013-06-03 16:08:00,
2013-06-03 12:11:00,68.9,68.0,29.84,NW,315,0.0,-999.0,97,0.02,,,1.48,Wunderground v.1.15,2013-06-03 16:11:00,
2013-06-03 12:12:00,69.0,68.0,29.84,NW,317,0.0,-999.0,97,-99.99,,,1.47,weatherlink.com 1.10,2013-06-03 16:12:00,
2013-06-03 12:13:00,69.2,68.0,29.84,NW,315,0.0,-999.0,96,0.02,,,1.48,Wunderground v.1.15,2013-06-03 16:13:00,
2013-06-03 12:16:00,69.2,68.0,29.84,NW,315,0.0,-999.0,96,0.02,,,1.48,Wunderground v.1.15,2013-06-03 16:16:00,
2013-06-03 12:18:00,69.9,68.1,29.83,NW,315,0.0,-999.0,94,0.02,,,1.48,Wunderground v.1.15,2013-06-03 16:18:00,
2013-06-03 12:21:00,69.9,68.1,29.83,NW,315,0.0,-999.0,94,0.02,,,1.48,Wunderground v.1.15,2013-06-03 16:21:00,
2013-06-03 12:23:00,70.6,68.5,29.83,NNE,23,0.0,-999.0,93,0.01,,,1.48,Wunderground v.1.15,2013-06-03 16:23:00,
2013-06-03 12:26:00,70.6,68.5,29.83,NNE,23,0.0,-999.0,93,0.01,,,1.48,Wunderground v.1.15,2013-06-03 16:26:00,
2013-06-03 12:27:00,71.0,70.0,29.83,NNE,13,0.0,-999.0,95,-99.99,,,1.47,weatherlink.com 1.10,2013-06-03 16:27:00,
2013-06-03 12:28:00,71.3,69.2,29.83,North,0,0.0,-999.0,93,0.01,,,1.48,Wunderground v.1.15,2013-06-03 16:28:00,
2013-06-03 12:31:00,71.3,69.2,29.83,North,0,0.0,-999.0,93,0.01,,,1.48,Wunderground v.1.15,2013-06-03 16:31:00,
2013-06-03 12:33:00,71.6,69.5,29.83,North,0,0.0,-999.0,93,0.01,,,1.48,Wunderground v.1.15,2013-06-03 16:33:00,
2013-06-03 12:36:00,71.6,69.5,29.83,North,0,0.0,-999.0,93,0.01,,,1.48,Wunderground v.1.15,2013-06-03 16:36:00,
2013-06-03 12:38:00,71.6,69.2,29.83,North,0,0.0,-999.0,92,0.01,,,1.48,Wunderground v.1.15,2013-06-03 16:38:00,
2013-06-03 12:41:00,71.6,69.2,29.83,North,0,0.0,-999.0,92,0.01,,,1.48,Wunderground v.1.15,2013-06-03 16:41:00,
2013-06-03 12:43:00,71.8,69.3,29.83,N/A,-737280,0.0,-999.0,92,0.01,,,1.48,Wunderground v.1.15,2013-06-03 16:43:00,
2013-06-03 12:46:00,71.8,69.3,29.83,N/A,-737280,0.0,-999.0,92,0.01,,,1.48,Wunderground v.1.15,2013-06-03 16:46:00,
2013-06-03 12:48:00,72.2,69.7,29.82,North,0,0.0,-999.0,92,0.00,,,1.48,Wunderground v.1.15,2013-06-03 16:48:00,
2013-06-03 12:51:00,72.2,69.7,29.82,North,0,0.0,-999.0,92,0.00,,,1.48,Wunderground v.1.15,2013-06-03 16:51:00,
2013-06-03 12:53:00,72.5,68.1,29.83,North,0,0.0,-999.0,86,0.00,,,1.48,Wunderground v.1.15,2013-06-03 16:53:00,
2013-06-03 12:56:00,72.5,68.1,29.83,North,0,0.0,-999.0,86,0.00,,,1.48,Wunderground v.1.15,2013-06-03 16:56:00,
2013-06-03 12:57:00,72.7,69.0,29.82,North,11,0.0,-999.0,88,-99.99,,,1.47,weatherlink.com 1.10,2013-06-03 16:57:00,
2013-06-03 12:58:00,73.0,69.2,29.82,North,0,0.0,-999.0,88,0.00,,,1.48,Wunderground v.1.15,2013-06-03 16:58:00,
2013-06-03 13:01:00,73.0,69.2,29.82,North,0,0.0,-999.0,88,0.00,,,1.48,Wunderground v.1.15,2013-06-03 17:01:00,
2013-06-03 13:03:00,73.7,68.6,29.82,North,0,0.0,-999.0,84,0.00,,,1.48,Wunderground v.1.15,2013-06-03 17:03:00,
2013-06-03 13:06:00,73.7,68.6,29.82,North,0,0.0,-999.0,84,0.00,,,1.48,Wunderground v.1.15,2013-06-03 17:06:00,
2013-06-03 13:08:00,73.9,68.4,29.81,NNW,338,0.0,-999.0,83,0.00,,,1.48,Wunderground v.1.15,2013-06-03 17:08:00,
2013-06-03 13:11:00,73.9,68.4,29.81,NNW,338,0.0,-999.0,83,0.00,,,1.48,Wunderground v.1.15,2013-06-03 17:11:00,
2013-06-03 13:12:00,74.2,70.0,29.81,NNW,330,0.0,-999.0,86,-99.99,,,1.47,weatherlink.com 1.10,2013-06-03 17:12:00,
2013-06-03 13:13:00,74.4,68.9,29.81,NNW,338,0.0,-999.0,83,0.00,,,1.48,Wunderground v.1.15,2013-06-03 17:13:00,
2013-06-03 13:16:00,74.4,68.9,29.81,NNW,338,0.0,-999.0,83,0.00,,,1.48,Wunderground v.1.15,2013-06-03 17:16:00,
2013-06-03 13:18:00,75.2,69.7,29.81,NNW,338,0.0,-999.0,83,0.00,,,1.48,Wunderground v.1.15,2013-06-03 17:18:00,
2013-06-03 13:21:00,75.2,69.7,29.81,NNW,338,0.0,-999.0,83,0.00,,,1.48,Wunderground v.1.15,2013-06-03 17:21:00,
2013-06-03 13:23:00,76.0,69.7,29.81,N/A,-737280,0.0,-999.0,81,0.00,,,1.48,Wunderground v.1.15,2013-06-03 17:23:00,
2013-06-03 13:26:00,76.0,69.7,29.81,N/A,-737280,0.0,-999.0,81,0.00,,,1.48,Wunderground v.1.15,2013-06-03 17:26:00,
2013-06-03 13:27:00,76.1,69.0,29.80,NNW,327,0.0,-999.0,78,-99.99,,,1.47,weatherlink.com 1.10,2013-06-03 17:27:00,
2013-06-03 13:28:00,76.3,70.0,29.81,NNW,338,0.0,-999.0,81,0.00,,,1.48,Wunderground v.1.15,2013-06-03 17:28:00,
2013-06-03 13:31:00,76.3,70.0,29.81,NNW,338,0.0,-999.0,81,0.00,,,1.48,Wunderground v.1.15,2013-06-03 17:31:00,
2013-06-03 13:33:00,76.6,68.8,29.81,NNW,338,0.0,-999.0,77,0.00,,,1.48,Wunderground v.1.15,2013-06-03 17:33:00,
2013-06-03 13:36:00,76.6,68.8,29.81,NNW,338,0.0,-999.0,77,0.00,,,1.48,Wunderground v.1.15,2013-06-03 17:36:00,
2013-06-03 13:38:00,77.0,69.6,29.81,NNW,338,0.0,-999.0,78,0.00,,,1.48,Wunderground v.1.15,2013-06-03 17:38:00,
2013-06-03 13:41:00,77.0,69.6,29.81,NNW,338,0.0,-999.0,78,0.00,,,1.48,Wunderground v.1.15,2013-06-03 17:41:00,
2013-06-03 13:42:00,77.0,69.0,29.80,NNW,327,0.0,-999.0,75,-99.99,,,1.47,weatherlink.com 1.10,2013-06-03 17:42:00,
2013-06-03 13:43:00,77.0,69.6,29.80,NNW,338,0.0,-999.0,78,0.00,,,1.48,Wunderground v.1.15,2013-06-03 17:43:00,
2013-06-03 13:46:00,77.0,69.6,29.80,NNW,338,0.0,-999.0,78,0.00,,,1.48,Wunderground v.1.15,2013-06-03 17:46:00,
2013-06-03 13:48:00,76.8,69.0,29.80,NW,315,0.0,-999.0,77,0.00,,,1.48,Wunderground v.1.15,2013-06-03 17:48:00,
2013-06-03 13:51:00,76.8,69.0,29.80,NW,315,0.0,-999.0,77,0.00,,,1.48,Wunderground v.1.15,2013-06-03 17:51:00,
2013-06-03 13:53:00,76.9,69.5,29.80,NW,315,0.0,-999.0,78,0.00,,,1.48,Wunderground v.1.15,2013-06-03 17:53:00,
2013-06-03 13:56:00,76.9,69.5,29.80,NW,315,0.0,-999.0,78,0.00,,,1.48,Wunderground v.1.15,2013-06-03 17:56:00,
2013-06-03 13:57:00,77.0,69.0,29.80,NW,309,1.0,-999.0,76,-99.99,,,1.47,weatherlink.com 1.10,2013-06-03 17:57:00,
2013-06-03 13:58:00,77.0,69.6,29.80,NW,315,0.0,-999.0,78,0.00,,,1.48,Wunderground v.1.15,2013-06-03 17:58:00,
2013-06-03 14:01:00,77.0,69.6,29.80,NW,315,0.0,-999.0,78,0.00,,,1.48,Wunderground v.1.15,2013-06-03 18:01:00,
2013-06-03 14:03:00,76.7,69.7,29.80,NW,315,0.0,-999.0,79,0.00,,,1.48,Wunderground v.1.15,2013-06-03 18:03:00,
2013-06-03 14:06:00,76.7,69.7,29.80,NW,315,0.0,-999.0,79,0.00,,,1.48,Wunderground v.1.15,2013-06-03 18:06:00,
2013-06-03 14:08:00,77.1,68.2,29.80,NW,315,0.0,-999.0,74,0.01,,,1.48,Wunderground v.1.15,2013-06-03 18:08:00,
2013-06-03 14:11:00,77.1,68.2,29.80,NW,315,0.0,-999.0,74,0.01,,,1.48,Wunderground v.1.15,2013-06-03 18:11:00,
2013-06-03 14:12:00,77.3,68.0,29.80,NNW,334,0.0,-999.0,74,-99.99,,,1.48,weatherlink.com 1.10,2013-06-03 18:12:00,
2013-06-03 14:13:00,77.5,68.9,29.80,NNW,338,0.0,-999.0,75,0.01,,,1.48,Wunderground v.1.15,2013-06-03 18:13:00,
2013-06-03 14:16:00,77.5,68.9,29.80,NNW,338,0.0,-999.0,75,0.01,,,1.48,Wunderground v.1.15,2013-06-03 18:16:00,
2013-06-03 14:18:00,76.9,68.0,29.80,NNW,338,0.0,-999.0,74,0.01,,,1.48,Wunderground v.1.15,2013-06-03 18:18:00,
2013-06-03 14:21:00,76.9,68.0,29.80,NNW,338,0.0,-999.0,74,0.01,,,1.48,Wunderground v.1.15,2013-06-03 18:21:00,
2013-06-03 14:23:00,76.9,69.1,29.80,NNW,338,0.0,-999.0,77,0.01,,,1.48,Wunderground v.1.15,2013-06-03 18:23:00,
2013-06-03 14:26:00,76.9,69.1,29.80,NNW,338,0.0,-999.0,77,0.01,,,1.48,Wunderground v.1.15,2013-06-03 18:26:00,
2013-06-03 14:27:00,77.2,71.0,29.80,NNW,333,0.0,-999.0,80,-99.99,,,1.48,weatherlink.com 1.10,2013-06-03 18:27:00,
2013-06-03 14:28:00,77.3,70.3,29.80,NNW,338,0.0,-999.0,79,0.01,,,1.48,Wunderground v.1.15,2013-06-03 18:28:00,
2013-06-03 14:31:00,77.3,70.3,29.80,NNW,338,0.0,-999.0,79,0.01,,,1.48,Wunderground v.1.15,2013-06-03 18:31:00,
2013-06-03 14:33:00,77.2,68.3,29.80,NNW,338,0.0,-999.0,74,0.01,,,1.48,Wunderground v.1.15,2013-06-03 18:33:00,
2013-06-03 14:36:00,77.2,68.3,29.80,NNW,338,0.0,-999.0,74,0.01,,,1.48,Wunderground v.1.15,2013-06-03 18:36:00,
2013-06-03 14:38:00,77.2,69.4,29.80,NNW,338,0.0,-999.0,77,0.01,,,1.48,Wunderground v.1.15,2013-06-03 18:38:00,
2013-06-03 14:41:00,77.2,69.4,29.80,NNW,338,0.0,-999.0,77,0.01,,,1.48,Wunderground v.1.15,2013-06-03 18:41:00,
2013-06-03 14:42:00,77.2,70.0,29.80,NNW,332,0.0,-999.0,77,-99.99,,,1.48,weatherlink.com 1.10,2013-06-03 18:42:00,
2013-06-03 14:43:00,77.2,69.4,29.80,NNW,338,0.0,-999.0,77,0.01,,,1.48,Wunderground v.1.15,2013-06-03 18:43:00,
2013-06-03 14:46:00,77.2,69.4,29.80,NNW,338,0.0,-999.0,77,0.01,,,1.48,Wunderground v.1.15,2013-06-03 18:46:00,
2013-06-03 14:48:00,77.1,69.7,29.80,N/A,-737280,0.0,-999.0,78,0.01,,,1.48,Wunderground v.1.15,2013-06-03 18:48:00,
2013-06-03 14:51:00,77.1,69.7,29.80,N/A,-737280,0.0,-999.0,78,0.01,,,1.48,Wunderground v.1.15,2013-06-03 18:51:00,
2013-06-03 14:53:00,76.9,68.8,29.80,NNW,338,0.0,-999.0,76,0.01,,,1.48,Wunderground v.1.15,2013-06-03 18:53:00,
2013-06-03 14:56:00,76.9,68.8,29.80,NNW,338,0.0,-999.0,76,0.01,,,1.48,Wunderground v.1.15,2013-06-03 18:56:00,
2013-06-03 14:57:00,76.9,70.0,29.81,NNW,332,0.0,-999.0,80,-99.99,,,1.48,weatherlink.com 1.10,2013-06-03 18:57:00,
2013-06-03 14:58:00,76.9,70.6,29.81,N/A,-737280,0.0,-999.0,81,0.01,,,1.48,Wunderground v.1.15,2013-06-03 18:58:00,
2013-06-03 15:01:00,76.9,70.6,29.81,N/A,-737280,0.0,-999.0,81,0.01,,,1.48,Wunderground v.1.15,2013-06-03 19:01:00,
2013-06-03 15:03:00,76.5,69.9,29.81,NNW,338,0.0,-999.0,80,0.01,,,1.48,Wunderground v.1.15,2013-06-03 19:03:00,
2013-06-03 15:06:00,76.5,69.9,29.81,NNW,338,0.0,-999.0,80,0.01,,,1.48,Wunderground v.1.15,2013-06-03 19:06:00,
2013-06-03 15:08:00,76.0,69.4,29.81,NNW,338,0.0,-999.0,80,0.00,,,1.48,Wunderground v.1.15,2013-06-03 19:08:00,
2013-06-03 15:11:00,76.0,69.4,29.81,NNW,338,0.0,-999.0,80,0.00,,,1.48,Wunderground v.1.15,2013-06-03 19:11:00,
2013-06-03 15:12:00,75.9,70.0,29.81,NNW,331,0.0,-999.0,83,-99.99,,,1.48,weatherlink.com 1.10,2013-06-03 19:12:00,
2013-06-03 15:13:00,75.8,70.6,29.81,NNW,338,0.0,-999.0,84,0.00,,,1.48,Wunderground v.1.15,2013-06-03 19:13:00,
2013-06-03 15:16:00,75.8,70.6,29.81,NNW,338,0.0,-999.0,84,0.00,,,1.48,Wunderground v.1.15,2013-06-03 19:16:00,
2013-06-03 15:18:00,75.6,70.8,29.81,SSE,158,0.0,-999.0,85,0.00,,,1.48,Wunderground v.1.15,2013-06-03 19:18:00,
2013-06-03 15:21:00,75.6,70.8,29.81,SSE,158,0.0,-999.0,85,0.00,,,1.48,Wunderground v.1.15,2013-06-03 19:21:00,
2013-06-03 15:23:00,75.2,70.7,29.81,SSE,158,0.0,-999.0,86,0.00,,,1.48,Wunderground v.1.15,2013-06-03 19:23:00,
2013-06-03 15:26:00,75.2,70.7,29.81,SSE,158,0.0,-999.0,86,0.00,,,1.48,Wunderground v.1.15,2013-06-03 19:26:00,
2013-06-03 15:27:00,75.0,71.0,29.81,SSE,160,0.0,-999.0,86,-99.99,,,1.48,weatherlink.com 1.10,2013-06-03 19:27:00,
2013-06-03 15:28:00,74.8,70.7,29.81,SSE,158,0.0,-999.0,87,0.00,,,1.48,Wunderground v.1.15,2013-06-03 19:28:00,
2013-06-03 15:31:00,74.8,70.7,29.81,SSE,158,0.0,-999.0,87,0.00,,,1.48,Wunderground v.1.15,2013-06-03 19:31:00,
2013-06-03 15:33:00,74.2,70.4,29.81,SSE,158,0.0,-999.0,88,0.00,,,1.48,Wunderground v.1.15,2013-06-03 19:33:00,
2013-06-03 15:36:00,74.2,70.4,29.81,SSE,158,0.0,-999.0,88,0.00,,,1.48,Wunderground v.1.15,2013-06-03 19:36:00,
2013-06-03 15:38:00,73.8,70.0,29.81,SE,135,0.0,-999.0,88,0.00,,,1.48,Wunderground v.1.15,2013-06-03 19:38:00,
2013-06-03 15:41:00,73.8,70.0,29.81,SE,135,0.0,-999.0,88,0.00,,,1.48,Wunderground v.1.15,2013-06-03 19:41:00,
2013-06-03 15:42:00,73.6,70.0,29.81,West,261,0.0,-999.0,87,-99.99,,,1.48,weatherlink.com 1.10,2013-06-03 19:42:00,
2013-06-03 15:43:00,73.3,69.9,29.81,West,270,0.0,-999.0,89,0.00,,,1.48,Wunderground v.1.15,2013-06-03 19:43:00,
2013-06-03 15:46:00,73.3,69.9,29.81,West,270,0.0,-999.0,89,0.00,,,1.48,Wunderground v.1.15,2013-06-03 19:46:00,
2013-06-03 15:48:00,73.0,69.9,29.81,West,270,0.0,-999.0,90,0.00,,,1.48,Wunderground v.1.15,2013-06-03 19:48:00,
2013-06-03 15:51:00,73.0,69.9,29.81,West,270,0.0,-999.0,90,0.00,,,1.48,Wunderground v.1.15,2013-06-03 19:51:00,
2013-06-03 15:53:00,72.8,69.7,29.81,N/A,-737280,0.0,-999.0,90,0.00,,,1.48,Wunderground v.1.15,2013-06-03 19:53:00,
2013-06-03 15:56:00,72.8,69.7,29.81,N/A,-737280,0.0,-999.0,90,0.00,,,1.48,Wunderground v.1.15,2013-06-03 19:56:00,
2013-06-03 15:57:00,72.9,70.0,29.81,West,261,0.0,-999.0,91,-99.99,,,1.48,weatherlink.com 1.10,2013-06-03 19:57:00,
2013-06-03 15:58:00,72.7,69.6,29.81,West,270,0.0,-999.0,90,0.00,,,1.48,Wunderground v.1.15,2013-06-03 19:58:00,
2013-06-03 16:01:00,72.7,69.6,29.81,West,270,0.0,-999.0,90,0.00,,,1.48,Wunderground v.1.15,2013-06-03 20:01:00,
2013-06-03 16:03:00,72.5,69.4,29.81,SSW,203,0.0,-999.0,90,0.00,,,1.48,Wunderground v.1.15,2013-06-03 20:03:00,
2013-06-03 16:06:00,72.5,69.4,29.81,SSW,203,0.0,-999.0,90,0.00,,,1.48,Wunderground v.1.15,2013-06-03 20:06:00,
2013-06-03 16:08:00,72.2,69.4,29.81,SE,135,0.0,-999.0,91,0.00,,,1.48,Wunderground v.1.15,2013-06-03 20:08:00,
2013-06-03 16:11:00,72.2,69.4,29.81,SE,135,0.0,-999.0,91,0.00,,,1.48,Wunderground v.1.15,2013-06-03 20:11:00,
2013-06-03 16:12:00,72.1,69.0,29.81,SE,142,0.0,-999.0,90,-99.99,,,1.48,weatherlink.com 1.10,2013-06-03 20:12:00,
2013-06-03 16:13:00,72.0,68.9,29.81,SE,135,0.0,-999.0,90,0.00,,,1.48,Wunderground v.1.15,2013-06-03 20:13:00,
2013-06-03 16:16:00,72.0,68.9,29.81,SE,135,0.0,-999.0,90,0.00,,,1.48,Wunderground v.1.15,2013-06-03 20:16:00,
2013-06-03 16:18:00,71.8,68.7,29.80,SE,135,0.0,-999.0,90,0.00,,,1.48,Wunderground v.1.15,2013-06-03 20:18:00,
2013-06-03 16:21:00,71.8,68.7,29.80,SE,135,0.0,-999.0,90,0.00,,,1.48,Wunderground v.1.15,2013-06-03 20:21:00,
2013-06-03 16:23:00,71.7,68.6,29.80,N/A,-737280,0.0,-999.0,90,0.00,,,1.48,Wunderground v.1.15,2013-06-03 20:23:00,
2013-06-03 16:26:00,71.7,68.6,29.80,N/A,-737280,0.0,-999.0,90,0.00,,,1.48,Wunderground v.1.15,2013-06-03 20:26:00,
2013-06-03 16:27:00,71.7,69.0,29.80,SE,141,0.0,-999.0,90,-99.99,,,1.48,weatherlink.com 1.10,2013-06-03 20:27:00,
2013-06-03 16:28:00,71.7,68.6,29.80,SE,135,0.0,-999.0,90,0.00,,,1.48,Wunderground v.1.15,2013-06-03 20:28:00,
2013-06-03 16:31:00,71.7,68.6,29.80,SE,135,0.0,-999.0,90,0.00,,,1.48,Wunderground v.1.15,2013-06-03 20:31:00,
2013-06-03 16:33:00,71.7,68.6,29.80,N/A,-737280,0.0,-999.0,90,0.00,,,1.48,Wunderground v.1.15,2013-06-03 20:33:00,
2013-06-03 16:36:00,71.7,68.6,29.80,N/A,-737280,0.0,-999.0,90,0.00,,,1.48,Wunderground v.1.15,2013-06-03 20:36:00,
2013-06-03 16:38:00,71.9,68.8,29.80,SE,135,0.0,-999.0,90,0.00,,,1.48,Wunderground v.1.15,2013-06-03 20:38:00,
2013-06-03 16:41:00,71.9,68.8,29.80,SE,135,0.0,-999.0,90,0.00,,,1.48,Wunderground v.1.15,2013-06-03 20:41:00,
2013-06-03 16:42:00,71.9,68.0,29.80,SE,141,0.0,-999.0,88,-99.99,,,1.48,weatherlink.com 1.10,2013-06-03 20:42:00,
2013-06-03 16:43:00,72.0,68.9,29.80,SE,135,0.0,-999.0,90,0.00,,,1.48,Wunderground v.1.15,2013-06-03 20:43:00,
2013-06-03 16:46:00,72.0,68.9,29.80,SE,135,0.0,-999.0,90,0.00,,,1.48,Wunderground v.1.15,2013-06-03 20:46:00,
2013-06-03 16:48:00,71.9,68.5,29.80,SE,135,0.0,-999.0,89,0.00,,,1.48,Wunderground v.1.15,2013-06-03 20:48:00,
2013-06-03 16:51:00,71.9,68.5,29.80,SE,135,0.0,-999.0,89,0.00,,,1.48,Wunderground v.1.15,2013-06-03 20:51:00,
2013-06-03 16:53:00,71.8,68.4,29.80,N/A,-737280,0.0,-999.0,89,0.00,,,1.48,Wunderground v.1.15,2013-06-03 20:53:00,
2013-06-03 16:56:00,71.8,68.4,29.80,N/A,-737280,0.0,-999.0,89,0.00,,,1.48,Wunderground v.1.15,2013-06-03 20:56:00,
2013-06-03 16:57:00,71.7,69.0,29.80,SE,141,0.0,-999.0,90,-99.99,,,1.48,weatherlink.com 1.10,2013-06-03 20:57:00,
2013-06-03 16:58:00,71.6,68.5,29.80,SE,135,0.0,-999.0,90,0.00,,,1.48,Wunderground v.1.15,2013-06-03 20:58:00,
2013-06-03 17:01:00,71.6,68.5,29.80,SE,135,0.0,-999.0,90,0.00,,,1.48,Wunderground v.1.15,2013-06-03 21:01:00,
2013-06-03 17:03:00,71.7,68.3,29.80,West,270,0.0,-999.0,89,0.00,,,1.48,Wunderground v.1.15,2013-06-03 21:03:00,
2013-06-03 17:06:00,71.7,68.3,29.80,West,270,0.0,-999.0,89,0.00,,,1.48,Wunderground v.1.15,2013-06-03 21:06:00,
2013-06-03 17:08:00,71.7,68.0,29.79,West,270,0.0,-999.0,88,0.00,,,1.48,Wunderground v.1.15,2013-06-03 21:08:00,
2013-06-03 17:11:00,71.7,68.0,29.79,West,270,0.0,-999.0,88,0.00,,,1.48,Wunderground v.1.15,2013-06-03 21:11:00,
2013-06-03 17:12:00,71.7,68.0,29.79,West,264,0.0,-999.0,89,-99.99,,,1.48,weatherlink.com 1.10,2013-06-03 21:12:00,
2013-06-03 17:13:00,71.8,68.4,29.79,N/A,-737280,0.0,-999.0,89,0.00,,,1.48,Wunderground v.1.15,2013-06-03 21:13:00,
2013-06-03 17:16:00,71.8,68.4,29.79,N/A,-737280,0.0,-999.0,89,0.00,,,1.48,Wunderground v.1.15,2013-06-03 21:16:00,
2013-06-03 17:18:00,72.1,68.3,29.79,West,270,0.0,-999.0,88,0.00,,,1.48,Wunderground v.1.15,2013-06-03 21:18:00,
2013-06-03 17:21:00,72.1,68.3,29.79,West,270,0.0,-999.0,88,0.00,,,1.48,Wunderground v.1.15,2013-06-03 21:21:00,
2013-06-03 17:23:00,72.7,68.9,29.79,West,270,0.0,-999.0,88,0.00,,,1.48,Wunderground v.1.15,2013-06-03 21:23:00,
2013-06-03 17:26:00,72.7,68.9,29.79,West,270,0.0,-999.0,88,0.00,,,1.48,Wunderground v.1.15,2013-06-03 21:26:00,
2013-06-03 17:27:00,73.1,69.0,29.79,West,264,0.0,-999.0,88,-99.99,,,1.48,weatherlink.com 1.10,2013-06-03 21:27:00,
2013-06-03 17:28:00,73.4,70.0,29.79,West,270,0.0,-999.0,89,0.00,,,1.48,Wunderground v.1.15,2013-06-03 21:28:00,
2013-06-03 17:31:00,73.4,70.0,29.79,West,270,0.0,-999.0,89,0.00,,,1.48,Wunderground v.1.15,2013-06-03 21:31:00,
2013-06-03 17:33:00,73.9,69.8,29.79,North,0,0.0,-999.0,87,0.00,,,1.48,Wunderground v.1.15,2013-06-03 21:33:00,
2013-06-03 17:36:00,73.9,69.8,29.79,North,0,0.0,-999.0,87,0.00,,,1.48,Wunderground v.1.15,2013-06-03 21:36:00,
2013-06-03 17:38:00,73.8,69.3,29.79,North,0,0.0,-999.0,86,0.00,,,1.48,Wunderground v.1.15,2013-06-03 21:38:00,
2013-06-03 17:41:00,73.8,69.3,29.79,North,0,0.0,-999.0,86,0.00,,,1.48,Wunderground v.1.15,2013-06-03 21:41:00,
2013-06-03 17:42:00,73.8,70.0,29.79,North,5,0.0,-999.0,87,-99.99,,,1.48,weatherlink.com 1.10,2013-06-03 21:42:00,
2013-06-03 17:43:00,73.8,70.0,29.79,North,0,0.0,-999.0,88,0.00,,,1.48,Wunderground v.1.15,2013-06-03 21:43:00,
2013-06-03 17:46:00,73.8,70.0,29.79,North,0,0.0,-999.0,88,0.00,,,1.48,Wunderground v.1.15,2013-06-03 21:46:00,
2013-06-03 17:48:00,73.7,70.3,29.80,NNE,23,0.0,-999.0,89,0.00,,,1.48,Wunderground v.1.15,2013-06-03 21:48:00,
2013-06-03 17:51:00,73.7,70.3,29.80,NNE,23,0.0,-999.0,89,0.00,,,1.48,Wunderground v.1.15,2013-06-03 21:51:00,
2013-06-03 17:53:00,73.5,69.7,29.79,NNE,23,0.0,-999.0,88,0.00,,,1.48,Wunderground v.1.15,2013-06-03 21:53:00,
2013-06-03 17:56:00,73.5,69.7,29.79,NNE,23,0.0,-999.0,88,0.00,,,1.48,Wunderground v.1.15,2013-06-03 21:56:00,
2013-06-03 17:57:00,73.3,69.0,29.79,NNE,26,0.0,-999.0,87,-99.99,,,1.48,weatherlink.com 1.10,2013-06-03 21:57:00,
2013-06-03 17:58:00,73.3,69.5,29.79,NNE,23,0.0,-999.0,88,0.00,,,1.48,Wunderground v.1.15,2013-06-03 21:58:00,
2013-06-03 18:01:00,73.3,69.5,29.79,NNE,23,0.0,-999.0,88,0.00,,,1.48,Wunderground v.1.15,2013-06-03 22:01:00,
2013-06-03 18:03:00,73.1,69.0,29.78,NNE,23,0.0,-999.0,87,0.00,,,1.48,Wunderground v.1.15,2013-06-03 22:03:00,
2013-06-03 18:06:00,73.1,69.0,29.78,NNE,23,0.0,-999.0,87,0.00,,,1.48,Wunderground v.1.15,2013-06-03 22:06:00,
2013-06-03 18:08:00,73.0,69.2,29.79,NNE,23,0.0,-999.0,88,0.00,,,1.48,Wunderground v.1.15,2013-06-03 22:08:00,
2013-06-03 18:11:00,73.0,69.2,29.79,NNE,23,0.0,-999.0,88,0.00,,,1.48,Wunderground v.1.15,2013-06-03 22:11:00,
2013-06-03 18:12:00,73.1,69.0,29.78,NNE,26,0.0,-999.0,88,-99.99,,,1.48,weatherlink.com 1.10,2013-06-03 22:12:00,
2013-06-03 18:13:00,73.2,69.4,29.78,N/A,-737280,0.0,-999.0,88,0.00,,,1.48,Wunderground v.1.15,2013-06-03 22:13:00,
2013-06-03 18:16:00,73.2,69.4,29.78,N/A,-737280,0.0,-999.0,88,0.00,,,1.48,Wunderground v.1.15,2013-06-03 22:16:00,
2013-06-03 18:18:00,73.7,70.3,29.79,N/A,-737280,0.0,-999.0,89,0.00,,,1.48,Wunderground v.1.15,2013-06-03 22:18:00,
2013-06-03 18:21:00,73.7,70.3,29.79,N/A,-737280,0.0,-999.0,89,0.00,,,1.48,Wunderground v.1.15,2013-06-03 22:21:00,
2013-06-03 18:23:00,74.0,70.2,29.79,NNE,23,0.0,-999.0,88,0.00,,,1.48,Wunderground v.1.15,2013-06-03 22:23:00,
2013-06-03 18:26:00,74.0,70.2,29.79,NNE,23,0.0,-999.0,88,0.00,,,1.48,Wunderground v.1.15,2013-06-03 22:26:00,
2013-06-03 18:27:00,74.2,70.0,29.79,NNE,26,0.0,-999.0,87,-99.99,,,1.48,weatherlink.com 1.10,2013-06-03 22:27:00,
2013-06-03 18:28:00,74.4,69.9,29.78,NNE,23,0.0,-999.0,86,0.00,,,1.48,Wunderground v.1.15,2013-06-03 22:28:00,
2013-06-03 18:31:00,74.4,69.9,29.78,NNE,23,0.0,-999.0,86,0.00,,,1.48,Wunderground v.1.15,2013-06-03 22:31:00,
2013-06-03 18:33:00,74.5,70.4,29.79,NNE,23,0.0,-999.0,87,0.00,,,1.48,Wunderground v.1.15,2013-06-03 22:33:00,
2013-06-03 18:36:00,74.5,70.4,29.79,NNE,23,0.0,-999.0,87,0.00,,,1.48,Wunderground v.1.15,2013-06-03 22:36:00,
2013-06-03 18:38:00,74.4,70.3,29.79,N/A,-737280,0.0,-999.0,87,0.00,,,1.48,Wunderground v.1.15,2013-06-03 22:38:00,
2013-06-03 18:41:00,74.4,70.3,29.79,N/A,-737280,0.0,-999.0,87,0.00,,,1.48,Wunderground v.1.15,2013-06-03 22:41:00,
2013-06-03 18:42:00,74.2,70.0,29.79,NNE,26,0.0,-999.0,86,-99.99,,,1.48,weatherlink.com 1.10,2013-06-03 22:42:00,
2013-06-03 18:43:00,74.1,69.6,29.79,N/A,-737280,0.0,-999.0,86,0.00,,,1.48,Wunderground v.1.15,2013-06-03 22:43:00,
2013-06-03 18:46:00,74.1,69.6,29.79,N/A,-737280,0.0,-999.0,86,0.00,,,1.48,Wunderground v.1.15,2013-06-03 22:46:00,
2013-06-03 18:48:00,73.7,69.6,29.79,NNE,23,0.0,-999.0,87,0.00,,,1.48,Wunderground v.1.15,2013-06-03 22:48:00,
2013-06-03 18:51:00,73.7,69.6,29.79,NNE,23,0.0,-999.0,87,0.00,,,1.48,Wunderground v.1.15,2013-06-03 22:51:00,
2013-06-03 18:53:00,73.6,69.8,29.79,NNE,23,0.0,-999.0,88,0.00,,,1.48,Wunderground v.1.15,2013-06-03 22:53:00,
2013-06-03 18:56:00,73.6,69.8,29.79,NNE,23,0.0,-999.0,88,0.00,,,1.48,Wunderground v.1.15,2013-06-03 22:56:00,
2013-06-03 18:57:00,73.5,70.0,29.79,NNE,25,0.0,-999.0,87,-99.99,,,1.48,weatherlink.com 1.10,2013-06-03 22:57:00,
2013-06-03 18:58:00,73.4,69.6,29.79,NNE,23,0.0,-999.0,88,0.00,,,1.48,Wunderground v.1.15,2013-06-03 22:58:00,
2013-06-03 19:01:00,73.4,69.6,29.79,NNE,23,0.0,-999.0,88,0.00,,,1.48,Wunderground v.1.15,2013-06-03 23:01:00,
2013-06-03 19:03:00,73.1,69.3,29.79,N/A,-737280,0.0,-999.0,88,0.00,,,1.48,Wunderground v.1.15,2013-06-03 23:03:00,
2013-06-03 19:06:00,73.1,69.3,29.79,N/A,-737280,0.0,-999.0,88,0.00,,,1.48,Wunderground v.1.15,2013-06-03 23:06:00,
2013-06-03 19:08:00,73.0,68.9,29.79,NNE,23,0.0,-999.0,87,0.00,,,1.48,Wunderground v.1.15,2013-06-03 23:08:00,
2013-06-03 19:11:00,73.0,68.9,29.79,NNE,23,0.0,-999.0,87,0.00,,,1.48,Wunderground v.1.15,2013-06-03 23:11:00,
2013-06-03 19:12:00,73.0,69.0,29.80,NNE,25,0.0,-999.0,87,-99.99,,,1.48,weatherlink.com 1.10,2013-06-03 23:12:00,
2013-06-03 19:13:00,72.9,68.8,29.80,NNE,23,0.0,-999.0,87,0.00,,,1.48,Wunderground v.1.15,2013-06-03 23:13:00,
2013-06-03 19:16:00,72.9,68.8,29.80,NNE,23,0.0,-999.0,87,0.00,,,1.48,Wunderground v.1.15,2013-06-03 23:16:00,
2013-06-03 19:18:00,72.7,68.6,29.80,NNE,23,0.0,-999.0,87,0.00,,,1.48,Wunderground v.1.15,2013-06-03 23:18:00,
2013-06-03 19:21:00,72.7,68.6,29.80,NNE,23,0.0,-999.0,87,0.00,,,1.48,Wunderground v.1.15,2013-06-03 23:21:00,
2013-06-03 19:23:00,72.6,68.8,29.80,N/A,-737280,0.0,-999.0,88,0.00,,,1.48,Wunderground v.1.15,2013-06-03 23:23:00,
2013-06-03 19:26:00,72.6,68.8,29.80,N/A,-737280,0.0,-999.0,88,0.00,,,1.48,Wunderground v.1.15,2013-06-03 23:26:00,
2013-06-03 19:27:00,72.5,69.0,29.80,NNE,26,0.0,-999.0,89,-99.99,,,1.48,weatherlink.com 1.10,2013-06-03 23:27:00,
2013-06-03 19:28:00,72.5,69.1,29.80,N/A,-737280,0.0,-999.0,89,0.00,,,1.48,Wunderground v.1.15,2013-06-03 23:28:00,
2013-06-03 19:31:00,72.5,69.1,29.80,N/A,-737280,0.0,-999.0,89,0.00,,,1.48,Wunderground v.1.15,2013-06-03 23:31:00,
2013-06-03 19:33:00,72.4,69.0,29.81,N/A,-737280,0.0,-999.0,89,0.00,,,1.48,Wunderground v.1.15,2013-06-03 23:33:00,
2013-06-03 19:36:00,72.4,69.0,29.81,N/A,-737280,0.0,-999.0,89,0.00,,,1.48,Wunderground v.1.15,2013-06-03 23:36:00,
2013-06-03 19:38:00,72.2,68.4,29.80,N/A,-737280,0.0,-999.0,88,0.00,,,1.48,Wunderground v.1.15,2013-06-03 23:38:00,
2013-06-03 19:41:00,72.2,68.4,29.80,N/A,-737280,0.0,-999.0,88,0.00,,,1.48,Wunderground v.1.15,2013-06-03 23:41:00,
2013-06-03 19:42:00,72.1,68.0,29.81,NNE,26,0.0,-999.0,88,-99.99,,,1.48,weatherlink.com 1.10,2013-06-03 23:42:00,
2013-06-03 19:43:00,72.0,68.2,29.81,N/A,-737280,0.0,-999.0,88,0.00,,,1.48,Wunderground v.1.15,2013-06-03 23:43:00,
2013-06-03 19:46:00,72.0,68.2,29.81,N/A,-737280,0.0,-999.0,88,0.00,,,1.48,Wunderground v.1.15,2013-06-03 23:46:00,
2013-06-03 19:48:00,71.8,68.4,29.81,N/A,-737280,0.0,-999.0,89,0.00,,,1.48,Wunderground v.1.15,2013-06-03 23:48:00,
2013-06-03 19:51:00,71.8,68.4,29.81,N/A,-737280,0.0,-999.0,89,0.00,,,1.48,Wunderground v.1.15,2013-06-03 23:51:00,
2013-06-03 19:53:00,71.6,68.2,29.81,N/A,-737280,0.0,-999.0,89,0.00,,,1.48,Wunderground v.1.15,2013-06-03 23:53:00,
2013-06-03 19:56:00,71.6,68.2,29.81,N/A,-737280,0.0,-999.0,89,0.00,,,1.48,Wunderground v.1.15,2013-06-03 23:56:00,
2013-06-03 19:57:00,71.5,69.0,29.81,NNE,26,0.0,-999.0,90,-99.99,,,1.48,weatherlink.com 1.10,2013-06-03 23:57:00,
2013-06-03 19:58:00,71.4,68.0,29.81,N/A,-737280,0.0,-999.0,89,0.00,,,1.48,Wunderground v.1.15,2013-06-03 23:58:00,
2013-06-03 20:01:00,71.4,68.0,29.81,N/A,-737280,0.0,-999.0,89,0.00,,,1.48,Wunderground v.1.15,2013-06-04 00:01:00,
2013-06-03 20:03:00,71.1,68.0,29.81,N/A,-737280,0.0,-999.0,90,0.00,,,1.48,Wunderground v.1.15,2013-06-04 00:03:00,
2013-06-03 20:06:00,71.1,68.0,29.81,N/A,-737280,0.0,-999.0,90,0.00,,,1.48,Wunderground v.1.15,2013-06-04 00:06:00,
2013-06-03 20:08:00,70.8,68.0,29.81,N/A,-737280,0.0,-999.0,91,0.00,,,1.48,Wunderground v.1.15,2013-06-04 00:08:00,
2013-06-03 20:13:00,70.6,67.8,29.81,NNE,26,0.0,0.0,91,0.00,,,1.48,Wunderground v.1.15,2013-06-04 00:13:00,
2013-06-03 20:28:00,69.3,64.3,29.81,NW,320,0.0,2.0,84,0.00,,,1.48,Wunderground v.1.15,2013-06-04 00:28:00,
2013-06-03 20:33:00,69.2,64.2,29.82,NW,321,0.0,2.0,84,0.00,,,1.48,Wunderground v.1.15,2013-06-04 00:33:00,
2013-06-03 20:38:00,68.9,63.5,29.82,NW,319,0.0,0.0,83,0.00,,,1.48,Wunderground v.1.15,2013-06-04 00:38:00,
2013-06-03 20:43:00,68.7,63.3,29.81,NW,320,0.0,0.0,83,0.00,,,1.48,Wunderground v.1.15,2013-06-04 00:43:00,
2013-06-03 20:53:00,68.1,62.7,29.82,NW,321,0.0,0.0,83,0.00,,,1.48,Wunderground v.1.15,2013-06-04 00:53:00,
2013-06-03 20:58:00,67.9,62.5,29.82,NW,321,0.0,0.0,83,0.00,,,1.48,Wunderground v.1.15,2013-06-04 00:58:00,
2013-06-03 21:03:00,67.6,62.9,29.82,NW,321,0.0,0.0,85,0.00,,,1.48,Wunderground v.1.15,2013-06-04 01:03:00,
2013-06-03 21:08:00,67.3,62.6,29.82,NW,321,0.0,0.0,85,0.00,,,1.48,Wunderground v.1.15,2013-06-04 01:08:00,
2013-06-03 21:13:00,67.1,62.1,29.83,NW,321,0.0,0.0,84,0.00,,,1.48,Wunderground v.1.15,2013-06-04 01:13:00,
2013-06-03 21:18:00,67.0,62.3,29.83,NW,320,0.0,0.0,85,0.00,,,1.48,Wunderground v.1.15,2013-06-04 01:18:00,
2013-06-03 21:28:00,66.8,61.5,29.83,NW,320,0.0,0.0,83,0.00,,,1.48,Wunderground v.1.15,2013-06-04 01:28:00,
2013-06-03 21:38:00,66.8,60.4,29.83,NNW,338,0.0,0.0,80,0.00,,,1.48,Wunderground v.1.15,2013-06-04 01:38:00,
2013-06-03 21:43:00,66.8,60.1,29.83,NNW,337,0.0,0.0,79,0.00,,,1.48,Wunderground v.1.15,2013-06-04 01:43:00,
2013-06-03 21:53:00,66.7,60.0,29.84,NNW,338,0.0,0.0,79,0.00,,,1.48,Wunderground v.1.15,2013-06-04 01:53:00,
2013-06-03 21:59:00,66.7,59.0,29.84,NNW,337,0.0,-999.0,77,-99.99,,,1.48,weatherlink.com 1.10,2013-06-04 01:59:00,
2013-06-03 22:08:00,66.7,58.9,29.84,NNW,331,0.0,2.0,76,0.00,,,1.48,Wunderground v.1.15,2013-06-04 02:08:00,
2013-06-03 22:15:00,66.6,58.0,29.84,WNW,302,0.0,-999.0,75,-99.99,,,1.48,weatherlink.com 1.10,2013-06-04 02:15:00,
2013-06-03 22:23:00,66.5,58.0,29.83,North,360,1.0,2.0,74,0.00,,,1.48,Wunderground v.1.15,2013-06-04 02:23:00,
2013-06-03 22:30:00,66.4,58.0,29.84,NW,307,0.0,-999.0,74,-99.99,,,1.48,weatherlink.com 1.10,2013-06-04 02:30:00,
2013-06-03 22:38:00,66.3,58.1,29.84,North,360,0.0,1.0,75,0.00,,,1.48,Wunderground v.1.15,2013-06-04 02:38:00,
2013-06-03 22:43:00,66.1,58.3,29.84,West,274,0.0,0.0,76,0.00,,,1.48,Wunderground v.1.15,2013-06-04 02:43:00,
2013-06-03 22:53:00,65.8,58.4,29.84,West,281,0.0,0.0,77,0.00,,,1.48,Wunderground v.1.15,2013-06-04 02:53:00,
2013-06-03 23:00:00,65.4,58.0,29.85,West,281,0.0,-999.0,78,-99.99,,,1.48,weatherlink.com 1.10,2013-06-04 03:00:00,
2013-06-03 23:08:00,65.0,58.3,29.85,West,276,0.0,0.0,79,0.00,,,1.48,Wunderground v.1.15,2013-06-04 03:08:00,
2013-06-03 23:15:00,64.5,58.0,29.85,North,5,0.0,-999.0,79,-99.99,,,1.48,weatherlink.com 1.10,2013-06-04 03:15:00,
2013-06-03 23:23:00,64.1,57.8,29.85,WNW,293,0.0,0.0,80,0.00,,,1.48,Wunderground v.1.15,2013-06-04 03:23:00,
2013-06-03 23:28:00,63.8,57.5,29.85,NE,53,0.0,0.0,80,0.00,,,1.48,Wunderground v.1.15,2013-06-04 03:28:00,
2013-06-03 23:38:00,63.2,56.9,29.86,NNW,335,0.0,0.0,80,0.00,,,1.48,Wunderground v.1.15,2013-06-04 03:38:00,
2013-06-03 23:47:00,62.7,56.0,29.86,NNE,20,0.0,-999.0,79,-99.99,,,1.48,weatherlink.com 1.10,2013-06-04 03:47:00,
2013-06-03 23:53:00,62.3,55.7,29.86,North,355,0.0,1.0,79,0.00,,,1.48,Wunderground v.1.15,2013-06-04 03:53:00,
2013-06-03 23:58:00,62.0,55.8,29.86,North,360,0.0,1.0,80,0.00,,,1.48,Wunderground v.1.15,2013-06-04 03:58:00,